PWSweather.com
Personal Weather Stations
Station Observations
DL5ARK
SonnebergDE

SonnebergDE

Lat: 50.34904861, Lon: 11.18112087

Elevation: 1214

Station Type: Selfmade

http://www.sumbarg.de

High Low Average
Temperature 41.1°F5.1°C 32.5°F0.3°C 38.1°F3.4°C
Dew Point 44.7°F7.1°C 38.1°F3.4°C 41.9°F5.5°C
Winds 10.0 mph 16.1 kmh Calm Calm 2.0 mph WSW3.2 kmh WSW
Wind Gusts 10.1 mph16.3 kmh -- 2.0 mph3.2 kmh
Humidity 91% 84% 89%
Pressure 29.86 in1011.2 mb 29.59 in1002.0 mb -
Precipitation 0.24 in6.1 mm - -
Hour Temp Dew Point Humidity Winds Wind Gusts Pressure Precip Precip Rate Daily Precip Total
12:01 AM 35.6°F2.0°C 40.0°F4.4°C 86% Calm Calm -- 29.86 in1011.2 mb 0.00 in0.0 mm 0.00 in0.0 mm 0.00 in0.0 mm
12:04 AM 35.8°F2.1°C 40.2°F4.6°C 86% Calm Calm -- 29.86 in1011.2 mb 0.00 in0.0 mm 0.00 in0.0 mm 0.00 in0.0 mm
12:07 AM 35.9°F2.2°C 40.3°F4.6°C 86% Calm Calm -- 29.86 in1011.2 mb 0.00 in0.0 mm 0.00 in0.0 mm 0.00 in0.0 mm
12:10 AM 36.2°F2.3°C 40.5°F4.7°C 87% Calm Calm -- 29.86 in1011.2 mb 0.00 in0.0 mm 0.00 in0.0 mm 0.00 in0.0 mm
12:13 AM 36.2°F2.3°C 40.3°F4.6°C 87% Calm Calm -- 29.86 in1011.2 mb 0.00 in0.0 mm 0.00 in0.0 mm 0.00 in0.0 mm
12:16 AM 36.4°F2.4°C 40.5°F4.7°C 87% 0.4 mph NW0.6 kmh NW 0.4 mph0.6 kmh 29.86 in1011.2 mb 0.00 in0.0 mm 0.00 in0.0 mm 0.00 in0.0 mm
12:19 AM 36.7°F2.6°C 40.5°F4.7°C 87% 0.4 mph NNW0.6 kmh NNW 0.4 mph0.6 kmh 29.86 in1011.2 mb 0.00 in0.0 mm 0.00 in0.0 mm 0.00 in0.0 mm
12:22 AM 36.7°F2.6°C 40.4°F4.7°C 87% Calm Calm -- 29.86 in1011.2 mb 0.00 in0.0 mm 0.00 in0.0 mm 0.00 in0.0 mm
12:25 AM 36.5°F2.5°C 40.4°F4.7°C 87% Calm Calm -- 29.86 in1011.2 mb 0.00 in0.0 mm 0.00 in0.0 mm 0.02 in0.5 mm
12:28 AM 36.3°F2.4°C 40.8°F4.9°C 87% Calm Calm -- 29.86 in1011.2 mb 0.00 in0.0 mm 0.00 in0.0 mm 0.02 in0.5 mm
12:31 AM 36.2°F2.3°C 40.6°F4.8°C 87% Calm Calm -- 29.86 in1011.2 mb 0.00 in0.0 mm 0.00 in0.0 mm 0.02 in0.5 mm
12:34 AM 35.9°F2.2°C 40.7°F4.8°C 87% Calm Calm -- 29.86 in1011.2 mb 0.00 in0.0 mm 0.00 in0.0 mm 0.02 in0.5 mm
12:37 AM 35.8°F2.1°C 40.2°F4.6°C 87% Calm Calm -- 29.86 in1011.2 mb 0.00 in0.0 mm 0.00 in0.0 mm 0.02 in0.5 mm
12:40 AM 35.8°F2.1°C 40.7°F4.8°C 88% Calm Calm -- 29.86 in1011.2 mb 0.00 in0.0 mm 0.00 in0.0 mm 0.02 in0.5 mm
12:43 AM 35.8°F2.1°C 40.6°F4.8°C 87% Calm Calm -- 29.86 in1011.2 mb 0.00 in0.0 mm 0.00 in0.0 mm 0.02 in0.5 mm
12:46 AM 35.7°F2.1°C 40.6°F4.8°C 87% Calm Calm -- 29.86 in1011.2 mb 0.00 in0.0 mm 0.00 in0.0 mm 0.02 in0.5 mm
12:49 AM 35.3°F1.8°C 40.4°F4.7°C 87% Calm Calm -- 29.86 in1011.2 mb 0.00 in0.0 mm 0.00 in0.0 mm 0.02 in0.5 mm
12:52 AM 35.2°F1.8°C 40.4°F4.7°C 87% Calm Calm -- 29.86 in1011.2 mb 0.00 in0.0 mm 0.00 in0.0 mm 0.02 in0.5 mm
12:55 AM 35.2°F1.8°C 40.1°F4.5°C 87% Calm Calm -- 29.86 in1011.2 mb 0.00 in0.0 mm 0.00 in0.0 mm 0.02 in0.5 mm
12:58 AM 34.4°F1.3°C 39.9°F4.4°C 87% Calm Calm -- 29.86 in1011.2 mb 0.00 in0.0 mm 0.00 in0.0 mm 0.02 in0.5 mm
01:01 AM 34.4°F1.3°C 39.9°F4.4°C 86% Calm Calm -- 29.86 in1011.2 mb 0.00 in0.0 mm 0.00 in0.0 mm 0.02 in0.5 mm
01:04 AM 33.7°F0.9°C 39.5°F4.2°C 86% Calm Calm -- 29.86 in1011.2 mb 0.00 in0.0 mm 0.00 in0.0 mm 0.02 in0.5 mm
01:07 AM 33.8°F1.0°C 39.7°F4.3°C 86% Calm Calm -- 29.86 in1011.2 mb 0.00 in0.0 mm 0.00 in0.0 mm 0.02 in0.5 mm
01:10 AM 33.4°F0.8°C 39.3°F4.1°C 86% Calm Calm -- 29.86 in1011.2 mb 0.00 in0.0 mm 0.00 in0.0 mm 0.02 in0.5 mm
01:13 AM 33.2°F0.7°C 38.9°F3.8°C 86% Calm Calm -- 29.86 in1011.2 mb 0.00 in0.0 mm 0.00 in0.0 mm 0.02 in0.5 mm
01:16 AM 32.7°F0.4°C 39.2°F4.0°C 86% Calm Calm -- 29.86 in1011.2 mb 0.00 in0.0 mm 0.00 in0.0 mm 0.02 in0.5 mm
01:19 AM 32.7°F0.4°C 39.0°F3.9°C 86% Calm Calm -- 29.86 in1011.2 mb 0.00 in0.0 mm 0.00 in0.0 mm 0.02 in0.5 mm
01:22 AM 32.5°F0.3°C 38.5°F3.6°C 85% Calm Calm -- 29.86 in1011.2 mb 0.00 in0.0 mm 0.00 in0.0 mm 0.02 in0.5 mm
01:25 AM 32.8°F0.4°C 38.1°F3.4°C 85% Calm Calm -- 29.86 in1011.2 mb 0.00 in0.0 mm 0.00 in0.0 mm 0.02 in0.5 mm
01:28 AM 33.1°F0.6°C 38.3°F3.5°C 86% Calm Calm -- 29.86 in1011.2 mb 0.00 in0.0 mm 0.00 in0.0 mm 0.02 in0.5 mm
01:31 AM 33.5°F0.8°C 38.2°F3.4°C 86% Calm Calm -- 29.86 in1011.2 mb 0.00 in0.0 mm 0.00 in0.0 mm 0.02 in0.5 mm
01:34 AM 33.4°F0.8°C 38.5°F3.6°C 86% Calm Calm -- 29.86 in1011.2 mb 0.00 in0.0 mm 0.00 in0.0 mm 0.02 in0.5 mm
01:37 AM 33.2°F0.7°C 38.3°F3.5°C 86% Calm Calm -- 29.86 in1011.2 mb 0.00 in0.0 mm 0.00 in0.0 mm 0.02 in0.5 mm
01:40 AM 33.7°F0.9°C 38.5°F3.6°C 87% Calm Calm -- 29.86 in1011.2 mb 0.00 in0.0 mm 0.00 in0.0 mm 0.02 in0.5 mm
01:43 AM 33.4°F0.8°C 38.2°F3.4°C 86% Calm Calm -- 29.86 in1011.2 mb 0.00 in0.0 mm 0.00 in0.0 mm 0.02 in0.5 mm
01:46 AM 33.5°F0.8°C 38.2°F3.4°C 87% Calm Calm -- 29.86 in1011.2 mb 0.00 in0.0 mm 0.00 in0.0 mm 0.02 in0.5 mm
01:49 AM 33.6°F0.9°C 38.6°F3.7°C 87% Calm Calm -- 29.86 in1011.2 mb 0.00 in0.0 mm 0.00 in0.0 mm 0.02 in0.5 mm
01:52 AM 33.7°F0.9°C 38.7°F3.7°C 88% Calm Calm -- 29.86 in1011.2 mb 0.00 in0.0 mm 0.00 in0.0 mm 0.02 in0.5 mm
01:55 AM 33.9°F1.1°C 38.5°F3.6°C 87% Calm Calm -- 29.86 in1011.2 mb 0.00 in0.0 mm 0.00 in0.0 mm 0.02 in0.5 mm
01:58 AM 34.1°F1.2°C 38.4°F3.6°C 87% Calm Calm -- 29.86 in1011.2 mb 0.00 in0.0 mm 0.00 in0.0 mm 0.02 in0.5 mm
02:01 AM 34.1°F1.2°C 38.5°F3.6°C 86% Calm Calm -- 29.86 in1011.2 mb 0.00 in0.0 mm 0.00 in0.0 mm 0.02 in0.5 mm
02:04 AM 34.1°F1.2°C 38.9°F3.8°C 88% Calm Calm -- 29.86 in1011.2 mb 0.00 in0.0 mm 0.00 in0.0 mm 0.02 in0.5 mm
02:07 AM 34.1°F1.2°C 39.1°F3.9°C 88% Calm Calm -- 29.86 in1011.2 mb 0.00 in0.0 mm 0.00 in0.0 mm 0.02 in0.5 mm
02:10 AM 34.1°F1.2°C 38.9°F3.8°C 88% Calm Calm -- 29.86 in1011.2 mb 0.00 in0.0 mm 0.00 in0.0 mm 0.02 in0.5 mm
02:13 AM 34.1°F1.2°C 38.9°F3.8°C 88% Calm Calm -- 29.86 in1011.2 mb 0.00 in0.0 mm 0.00 in0.0 mm 0.02 in0.5 mm
02:16 AM 34.3°F1.3°C 39.0°F3.9°C 89% Calm Calm -- 29.86 in1011.2 mb 0.00 in0.0 mm 0.00 in0.0 mm 0.02 in0.5 mm
02:19 AM 34.4°F1.3°C 39.0°F3.9°C 88% Calm Calm -- 29.86 in1011.2 mb 0.00 in0.0 mm 0.00 in0.0 mm 0.02 in0.5 mm
02:22 AM 34.4°F1.3°C 38.8°F3.8°C 87% Calm Calm -- 29.86 in1011.2 mb 0.00 in0.0 mm 0.00 in0.0 mm 0.02 in0.5 mm
02:25 AM 34.4°F1.3°C 39.2°F4.0°C 89% Calm Calm -- 29.86 in1011.2 mb 0.00 in0.0 mm 0.00 in0.0 mm 0.02 in0.5 mm
02:28 AM 34.5°F1.4°C 38.9°F3.8°C 89% Calm Calm -- 29.86 in1011.2 mb 0.00 in0.0 mm 0.00 in0.0 mm 0.02 in0.5 mm
02:31 AM 34.5°F1.4°C 39.1°F3.9°C 89% Calm Calm -- 29.86 in1011.2 mb 0.00 in0.0 mm 0.00 in0.0 mm 0.02 in0.5 mm
02:34 AM 34.7°F1.5°C 39.2°F4.0°C 89% Calm Calm -- 29.86 in1011.2 mb 0.00 in0.0 mm 0.00 in0.0 mm 0.02 in0.5 mm
02:37 AM 34.7°F1.5°C 39.3°F4.1°C 89% Calm Calm -- 29.86 in1011.2 mb 0.00 in0.0 mm 0.00 in0.0 mm 0.02 in0.5 mm
02:40 AM 34.8°F1.6°C 38.9°F3.8°C 89% Calm Calm -- 29.86 in1011.2 mb 0.00 in0.0 mm 0.00 in0.0 mm 0.02 in0.5 mm
02:43 AM 35.2°F1.8°C 39.5°F4.2°C 89% Calm Calm -- 29.86 in1011.2 mb 0.00 in0.0 mm 0.00 in0.0 mm 0.02 in0.5 mm
02:46 AM 35.2°F1.8°C 39.5°F4.2°C 89% Calm Calm -- 29.86 in1011.2 mb 0.00 in0.0 mm 0.00 in0.0 mm 0.02 in0.5 mm
02:49 AM 35.3°F1.8°C 39.5°F4.2°C 89% Calm Calm -- 29.86 in1011.2 mb 0.00 in0.0 mm 0.00 in0.0 mm 0.02 in0.5 mm
02:52 AM 35.3°F1.8°C 39.5°F4.2°C 89% Calm Calm -- 29.86 in1011.2 mb 0.00 in0.0 mm 0.00 in0.0 mm 0.02 in0.5 mm
02:55 AM 35.7°F2.1°C 39.7°F4.3°C 90% Calm Calm -- 29.86 in1011.2 mb 0.00 in0.0 mm 0.00 in0.0 mm 0.02 in0.5 mm
02:58 AM 36.2°F2.3°C 39.9°F4.4°C 91% 1.6 mph 2.6 kmh 1.6 mph2.6 kmh 29.86 in1011.2 mb 0.00 in0.0 mm 0.00 in0.0 mm 0.02 in0.5 mm
03:01 AM 36.3°F2.4°C 40.1°F4.5°C 91% 1.6 mph NNE2.6 kmh NNE 1.6 mph2.6 kmh 29.86 in1011.2 mb 0.00 in0.0 mm 0.00 in0.0 mm 0.02 in0.5 mm
03:04 AM 36.4°F2.4°C 40.2°F4.6°C 91% 2.0 mph 3.2 kmh 2.0 mph3.2 kmh 29.86 in1011.2 mb 0.00 in0.0 mm 0.00 in0.0 mm 0.02 in0.5 mm
03:07 AM 36.4°F2.4°C 39.9°F4.4°C 90% 2.4 mph NW3.9 kmh NW 2.4 mph3.9 kmh 29.86 in1011.2 mb 0.00 in0.0 mm 0.00 in0.0 mm 0.02 in0.5 mm
03:10 AM 36.3°F2.4°C 40.2°F4.6°C 90% Calm Calm -- 29.86 in1011.2 mb 0.00 in0.0 mm 0.00 in0.0 mm 0.02 in0.5 mm
03:13 AM 36.6°F2.6°C 40.1°F4.5°C 90% 1.6 mph NW2.6 kmh NW 1.6 mph2.6 kmh 29.86 in1011.2 mb 0.00 in0.0 mm 0.00 in0.0 mm 0.02 in0.5 mm
03:16 AM 36.5°F2.5°C 40.3°F4.6°C 91% 2.7 mph NW4.3 kmh NW 2.7 mph4.3 kmh 29.86 in1011.2 mb 0.00 in0.0 mm 0.00 in0.0 mm 0.02 in0.5 mm
03:19 AM 36.6°F2.6°C 40.0°F4.4°C 90% Calm Calm -- 29.86 in1011.2 mb 0.00 in0.0 mm 0.00 in0.0 mm 0.02 in0.5 mm
03:22 AM 36.6°F2.6°C 40.1°F4.5°C 90% 1.2 mph NNW1.9 kmh NNW 1.2 mph1.9 kmh 29.86 in1011.2 mb 0.00 in0.0 mm 0.00 in0.0 mm 0.02 in0.5 mm
03:25 AM 36.5°F2.5°C 40.2°F4.6°C 90% Calm Calm -- 29.86 in1011.2 mb 0.00 in0.0 mm 0.00 in0.0 mm 0.02 in0.5 mm
03:28 AM 36.4°F2.4°C 40.2°F4.6°C 90% 2.4 mph NNW3.9 kmh NNW 2.5 mph4.0 kmh 29.86 in1011.2 mb 0.00 in0.0 mm 0.00 in0.0 mm 0.02 in0.5 mm
03:31 AM 36.4°F2.4°C 40.1°F4.5°C 90% Calm Calm -- 29.85 in1010.8 mb 0.00 in0.0 mm 0.00 in0.0 mm 0.02 in0.5 mm
03:34 AM 36.4°F2.4°C 40.2°F4.6°C 90% 2.4 mph NW3.9 kmh NW 2.4 mph3.9 kmh 29.84 in1010.5 mb 0.00 in0.0 mm 0.00 in0.0 mm 0.02 in0.5 mm
03:37 AM 36.2°F2.3°C 40.2°F4.6°C 89% Calm Calm -- 29.85 in1010.8 mb 0.00 in0.0 mm 0.00 in0.0 mm 0.02 in0.5 mm
03:40 AM 36.2°F2.3°C 40.2°F4.6°C 90% 1.2 mph WNW1.9 kmh WNW 1.2 mph1.9 kmh 29.85 in1010.8 mb 0.00 in0.0 mm 0.00 in0.0 mm 0.02 in0.5 mm
03:43 AM 36.2°F2.3°C 40.4°F4.7°C 90% 0.8 mph W1.3 kmh W 0.8 mph1.3 kmh 29.85 in1010.8 mb 0.00 in0.0 mm 0.00 in0.0 mm 0.02 in0.5 mm
03:46 AM 36.3°F2.4°C 40.2°F4.6°C 90% 2.0 mph W3.2 kmh W 2.0 mph3.2 kmh 29.85 in1010.8 mb 0.00 in0.0 mm 0.00 in0.0 mm 0.02 in0.5 mm
03:49 AM 36.4°F2.4°C 40.3°F4.6°C 90% 1.1 mph NNW1.8 kmh NNW 1.1 mph1.8 kmh 29.85 in1010.8 mb 0.00 in0.0 mm 0.00 in0.0 mm 0.02 in0.5 mm
03:52 AM 36.3°F2.4°C 40.1°F4.5°C 90% 0.8 mph W1.3 kmh W 0.8 mph1.3 kmh 29.85 in1010.8 mb 0.00 in0.0 mm 0.00 in0.0 mm 0.02 in0.5 mm
03:55 AM 36.3°F2.4°C 40.5°F4.7°C 90% Calm Calm -- 29.84 in1010.5 mb 0.00 in0.0 mm 0.00 in0.0 mm 0.02 in0.5 mm
03:58 AM 36.2°F2.3°C 40.1°F4.5°C 89% Calm Calm -- 29.84 in1010.5 mb 0.00 in0.0 mm 0.00 in0.0 mm 0.02 in0.5 mm
04:01 AM 36.4°F2.4°C 40.4°F4.7°C 90% Calm Calm -- 29.84 in1010.5 mb 0.00 in0.0 mm 0.00 in0.0 mm 0.02 in0.5 mm
04:04 AM 36.3°F2.4°C 40.3°F4.6°C 90% Calm Calm -- 29.84 in1010.5 mb 0.00 in0.0 mm 0.00 in0.0 mm 0.02 in0.5 mm
04:07 AM 36.4°F2.4°C 40.2°F4.6°C 90% Calm Calm -- 29.84 in1010.5 mb 0.00 in0.0 mm 0.00 in0.0 mm 0.02 in0.5 mm
04:10 AM 36.5°F2.5°C 40.4°F4.7°C 90% Calm Calm -- 29.84 in1010.5 mb 0.00 in0.0 mm 0.00 in0.0 mm 0.02 in0.5 mm
04:13 AM 36.4°F2.4°C 40.2°F4.6°C 90% 1.6 mph W2.6 kmh W 1.6 mph2.6 kmh 29.84 in1010.5 mb 0.00 in0.0 mm 0.00 in0.0 mm 0.02 in0.5 mm
04:16 AM 36.5°F2.5°C 40.2°F4.6°C 90% 1.2 mph NW1.9 kmh NW 1.2 mph1.9 kmh 29.84 in1010.5 mb 0.00 in0.0 mm 0.00 in0.0 mm 0.02 in0.5 mm
04:19 AM 36.5°F2.5°C 40.5°F4.7°C 90% 1.1 mph WNW1.8 kmh WNW 1.2 mph1.9 kmh 29.84 in1010.5 mb 0.00 in0.0 mm 0.00 in0.0 mm 0.02 in0.5 mm
04:22 AM 36.6°F2.6°C 40.4°F4.7°C 90% 2.0 mph NNW3.2 kmh NNW 2.0 mph3.2 kmh 29.84 in1010.5 mb 0.00 in0.0 mm 0.00 in0.0 mm 0.02 in0.5 mm
04:25 AM 36.6°F2.6°C 40.2°F4.6°C 90% 1.6 mph NNW2.6 kmh NNW 1.6 mph2.6 kmh 29.84 in1010.5 mb 0.00 in0.0 mm 0.00 in0.0 mm 0.02 in0.5 mm
04:28 AM 36.8°F2.7°C 40.4°F4.7°C 90% 1.9 mph WNW3.1 kmh WNW 2.0 mph3.2 kmh 29.84 in1010.5 mb 0.00 in0.0 mm 0.00 in0.0 mm 0.02 in0.5 mm
04:31 AM 36.8°F2.7°C 40.8°F4.9°C 90% 0.4 mph WSW0.6 kmh WSW 0.4 mph0.6 kmh 29.84 in1010.5 mb 0.00 in0.0 mm 0.00 in0.0 mm 0.02 in0.5 mm
04:34 AM 37.0°F2.8°C 40.7°F4.8°C 90% 1.6 mph W2.6 kmh W 1.6 mph2.6 kmh 29.84 in1010.5 mb 0.00 in0.0 mm 0.00 in0.0 mm 0.02 in0.5 mm
04:37 AM 37.1°F2.8°C 40.7°F4.8°C 90% 2.0 mph W3.2 kmh W 2.0 mph3.2 kmh 29.84 in1010.5 mb 0.00 in0.0 mm 0.00 in0.0 mm 0.02 in0.5 mm
04:40 AM 37.2°F2.9°C 40.5°F4.7°C 90% 4.0 mph NNW6.4 kmh NNW 4.0 mph6.4 kmh 29.84 in1010.5 mb 0.00 in0.0 mm 0.00 in0.0 mm 0.02 in0.5 mm
04:43 AM 37.2°F2.9°C 40.7°F4.8°C 90% 1.9 mph NNW3.1 kmh NNW 2.0 mph3.2 kmh 29.84 in1010.5 mb 0.00 in0.0 mm 0.00 in0.0 mm 0.02 in0.5 mm
04:46 AM 37.2°F2.9°C 40.7°F4.8°C 90% 2.0 mph WNW3.2 kmh WNW 2.0 mph3.2 kmh 29.83 in1010.2 mb 0.00 in0.0 mm 0.00 in0.0 mm 0.02 in0.5 mm
04:49 AM 37.3°F2.9°C 40.4°F4.7°C 89% 8.1 mph WNW13.0 kmh WNW 8.2 mph13.2 kmh 29.84 in1010.5 mb 0.00 in0.0 mm 0.00 in0.0 mm 0.02 in0.5 mm
04:52 AM 37.2°F2.9°C 40.3°F4.6°C 89% 4.8 mph NW7.7 kmh NW 4.9 mph7.9 kmh 29.84 in1010.5 mb 0.00 in0.0 mm 0.00 in0.0 mm 0.02 in0.5 mm
04:55 AM 37.3°F2.9°C 40.9°F4.9°C 90% 4.8 mph W7.7 kmh W 4.9 mph7.9 kmh 29.84 in1010.5 mb 0.00 in0.0 mm 0.00 in0.0 mm 0.02 in0.5 mm
04:58 AM 37.3°F2.9°C 40.7°F4.8°C 90% 4.4 mph WNW7.1 kmh WNW 4.4 mph7.1 kmh 29.84 in1010.5 mb 0.00 in0.0 mm 0.00 in0.0 mm 0.02 in0.5 mm
05:01 AM 37.2°F2.9°C 40.5°F4.7°C 90% 0.8 mph WNW1.3 kmh WNW 0.8 mph1.3 kmh 29.84 in1010.5 mb 0.00 in0.0 mm 0.00 in0.0 mm 0.02 in0.5 mm
05:04 AM 37.3°F2.9°C 40.7°F4.8°C 90% 4.8 mph NW7.7 kmh NW 4.9 mph7.9 kmh 29.83 in1010.2 mb 0.00 in0.0 mm 0.00 in0.0 mm 0.02 in0.5 mm
05:07 AM 37.3°F2.9°C 40.8°F4.9°C 90% 3.6 mph W5.8 kmh W 3.6 mph5.8 kmh 29.83 in1010.2 mb 0.00 in0.0 mm 0.00 in0.0 mm 0.02 in0.5 mm
05:10 AM 37.2°F2.9°C 40.6°F4.8°C 90% 4.1 mph NNW6.6 kmh NNW 4.1 mph6.6 kmh 29.84 in1010.5 mb 0.00 in0.0 mm 0.00 in0.0 mm 0.02 in0.5 mm
05:13 AM 37.3°F2.9°C 40.7°F4.8°C 90% 5.3 mph NW8.5 kmh NW 5.3 mph8.5 kmh 29.84 in1010.5 mb 0.00 in0.0 mm 0.00 in0.0 mm 0.02 in0.5 mm
05:16 AM 37.3°F2.9°C 40.8°F4.9°C 90% 4.3 mph NNW6.9 kmh NNW 4.3 mph6.9 kmh 29.84 in1010.5 mb 0.00 in0.0 mm 0.00 in0.0 mm 0.02 in0.5 mm
05:19 AM 37.3°F2.9°C 40.8°F4.9°C 90% 4.0 mph 6.4 kmh 4.1 mph6.6 kmh 29.84 in1010.5 mb 0.00 in0.0 mm 0.00 in0.0 mm 0.02 in0.5 mm
05:22 AM 37.3°F2.9°C 40.9°F4.9°C 90% 5.2 mph WNW8.4 kmh WNW 5.3 mph8.5 kmh 29.84 in1010.5 mb 0.00 in0.0 mm 0.00 in0.0 mm 0.02 in0.5 mm
05:25 AM 37.3°F2.9°C 40.9°F4.9°C 90% 3.5 mph NNW5.6 kmh NNW 3.6 mph5.8 kmh 29.84 in1010.5 mb 0.00 in0.0 mm 0.00 in0.0 mm 0.02 in0.5 mm
05:28 AM 37.3°F2.9°C 41.0°F5.0°C 90% Calm Calm -- 29.84 in1010.5 mb 0.00 in0.0 mm 0.00 in0.0 mm 0.02 in0.5 mm
05:31 AM 37.3°F2.9°C 41.0°F5.0°C 90% 4.9 mph NNW7.9 kmh NNW 4.9 mph7.9 kmh 29.84 in1010.5 mb 0.00 in0.0 mm 0.00 in0.0 mm 0.02 in0.5 mm
05:34 AM 37.3°F2.9°C 40.8°F4.9°C 90% Calm Calm -- 29.84 in1010.5 mb 0.00 in0.0 mm 0.00 in0.0 mm 0.02 in0.5 mm
05:37 AM 37.2°F2.9°C 40.8°F4.9°C 90% 2.0 mph WNW3.2 kmh WNW 2.0 mph3.2 kmh 29.84 in1010.5 mb 0.00 in0.0 mm 0.00 in0.0 mm 0.02 in0.5 mm
05:40 AM 37.3°F2.9°C 40.8°F4.9°C 90% Calm Calm -- 29.84 in1010.5 mb 0.00 in0.0 mm 0.00 in0.0 mm 0.02 in0.5 mm
05:43 AM 37.3°F2.9°C 40.7°F4.8°C 89% 2.4 mph WNW3.9 kmh WNW 2.4 mph3.9 kmh 29.84 in1010.5 mb 0.00 in0.0 mm 0.00 in0.0 mm 0.02 in0.5 mm
05:46 AM 37.3°F2.9°C 41.0°F5.0°C 90% 4.0 mph NNW6.4 kmh NNW 4.0 mph6.4 kmh 29.84 in1010.5 mb 0.00 in0.0 mm 0.00 in0.0 mm 0.02 in0.5 mm
05:49 AM 37.3°F2.9°C 40.9°F4.9°C 89% 4.4 mph NNW7.1 kmh NNW 4.5 mph7.2 kmh 29.84 in1010.5 mb 0.00 in0.0 mm 0.00 in0.0 mm 0.02 in0.5 mm
05:52 AM 37.2°F2.9°C 40.8°F4.9°C 89% 4.0 mph W6.4 kmh W 4.0 mph6.4 kmh 29.83 in1010.2 mb 0.00 in0.0 mm 0.00 in0.0 mm 0.02 in0.5 mm
05:55 AM 37.4°F3.0°C 40.5°F4.7°C 89% 2.0 mph NNW3.2 kmh NNW 2.0 mph3.2 kmh 29.84 in1010.5 mb 0.00 in0.0 mm 0.00 in0.0 mm 0.02 in0.5 mm
05:58 AM 37.3°F2.9°C 41.1°F5.1°C 90% 4.4 mph NNW7.1 kmh NNW 4.4 mph7.1 kmh 29.84 in1010.5 mb 0.00 in0.0 mm 0.00 in0.0 mm 0.02 in0.5 mm
06:01 AM 37.2°F2.9°C 40.6°F4.8°C 89% 6.5 mph NW10.5 kmh NW 6.5 mph10.5 kmh 29.83 in1010.2 mb 0.00 in0.0 mm 0.00 in0.0 mm 0.02 in0.5 mm
06:04 AM 37.3°F2.9°C 40.6°F4.8°C 89% 4.0 mph W6.4 kmh W 4.0 mph6.4 kmh 29.84 in1010.5 mb 0.00 in0.0 mm 0.00 in0.0 mm 0.02 in0.5 mm
06:07 AM 37.2°F2.9°C 40.7°F4.8°C 89% 4.0 mph NNW6.4 kmh NNW 4.0 mph6.4 kmh 29.84 in1010.5 mb 0.00 in0.0 mm 0.00 in0.0 mm 0.02 in0.5 mm
06:10 AM 37.2°F2.9°C 40.9°F4.9°C 89% 3.6 mph NW5.8 kmh NW 3.6 mph5.8 kmh 29.84 in1010.5 mb 0.00 in0.0 mm 0.00 in0.0 mm 0.02 in0.5 mm
06:13 AM 37.3°F2.9°C 40.6°F4.8°C 89% 3.2 mph NNW5.1 kmh NNW 3.3 mph5.3 kmh 29.83 in1010.2 mb 0.00 in0.0 mm 0.00 in0.0 mm 0.02 in0.5 mm
06:19 AM 37.2°F2.9°C 40.4°F4.7°C 88% 0.8 mph WNW1.3 kmh WNW 0.8 mph1.3 kmh 29.83 in1010.2 mb 0.00 in0.0 mm 0.00 in0.0 mm 0.02 in0.5 mm
06:22 AM 37.2°F2.9°C 40.8°F4.9°C 89% 2.0 mph NW3.2 kmh NW 2.0 mph3.2 kmh 29.83 in1010.2 mb 0.00 in0.0 mm 0.00 in0.0 mm 0.02 in0.5 mm
06:25 AM 37.2°F2.9°C 40.7°F4.8°C 89% 1.6 mph WNW2.6 kmh WNW 1.6 mph2.6 kmh 29.83 in1010.2 mb 0.00 in0.0 mm 0.00 in0.0 mm 0.02 in0.5 mm
06:28 AM 37.2°F2.9°C 40.6°F4.8°C 88% 3.5 mph W5.6 kmh W 3.5 mph5.6 kmh 29.83 in1010.2 mb 0.00 in0.0 mm 0.00 in0.0 mm 0.02 in0.5 mm
06:31 AM 37.1°F2.8°C 40.6°F4.8°C 89% 0.8 mph NNW1.3 kmh NNW 0.8 mph1.3 kmh 29.84 in1010.5 mb 0.00 in0.0 mm 0.00 in0.0 mm 0.02 in0.5 mm
06:34 AM 37.1°F2.8°C 40.3°F4.6°C 88% 2.8 mph WNW4.5 kmh WNW 2.9 mph4.7 kmh 29.84 in1010.5 mb 0.00 in0.0 mm 0.00 in0.0 mm 0.02 in0.5 mm
06:37 AM 37.1°F2.8°C 40.8°F4.9°C 89% 2.4 mph W3.9 kmh W 2.4 mph3.9 kmh 29.84 in1010.5 mb 0.00 in0.0 mm 0.00 in0.0 mm 0.02 in0.5 mm
06:40 AM 37.1°F2.8°C 40.4°F4.7°C 89% 4.0 mph NW6.4 kmh NW 4.0 mph6.4 kmh 29.84 in1010.5 mb 0.00 in0.0 mm 0.00 in0.0 mm 0.02 in0.5 mm
06:43 AM 37.1°F2.8°C 40.6°F4.8°C 88% 4.8 mph W7.7 kmh W 4.9 mph7.9 kmh 29.84 in1010.5 mb 0.00 in0.0 mm 0.00 in0.0 mm 0.02 in0.5 mm
06:46 AM 37.1°F2.8°C 40.4°F4.7°C 88% 4.0 mph NNW6.4 kmh NNW 4.1 mph6.6 kmh 29.83 in1010.2 mb 0.00 in0.0 mm 0.00 in0.0 mm 0.02 in0.5 mm
06:49 AM 37.0°F2.8°C 40.7°F4.8°C 89% 4.4 mph WNW7.1 kmh WNW 4.5 mph7.2 kmh 29.83 in1010.2 mb 0.00 in0.0 mm 0.00 in0.0 mm 0.02 in0.5 mm
06:52 AM 37.1°F2.8°C 40.4°F4.7°C 88% 4.0 mph W6.4 kmh W 4.1 mph6.6 kmh 29.83 in1010.2 mb 0.00 in0.0 mm 0.00 in0.0 mm 0.02 in0.5 mm
06:55 AM 37.1°F2.8°C 40.5°F4.7°C 88% 2.8 mph W4.5 kmh W 2.9 mph4.7 kmh 29.83 in1010.2 mb 0.00 in0.0 mm 0.00 in0.0 mm 0.02 in0.5 mm
06:58 AM 37.0°F2.8°C 40.5°F4.7°C 88% Calm Calm -- 29.83 in1010.2 mb 0.00 in0.0 mm 0.00 in0.0 mm 0.02 in0.5 mm
07:01 AM 37.0°F2.8°C 40.5°F4.7°C 88% Calm Calm -- 29.83 in1010.2 mb 0.00 in0.0 mm 0.00 in0.0 mm 0.02 in0.5 mm
07:04 AM 37.0°F2.8°C 40.1°F4.5°C 88% 3.2 mph NW5.1 kmh NW 3.3 mph5.3 kmh 29.83 in1010.2 mb 0.00 in0.0 mm 0.00 in0.0 mm 0.02 in0.5 mm
07:07 AM 37.1°F2.8°C 40.2°F4.6°C 87% 1.2 mph W1.9 kmh W 1.2 mph1.9 kmh 29.83 in1010.2 mb 0.00 in0.0 mm 0.00 in0.0 mm 0.02 in0.5 mm
07:10 AM 37.1°F2.8°C 40.4°F4.7°C 88% 4.0 mph W6.4 kmh W 4.0 mph6.4 kmh 29.83 in1010.2 mb 0.00 in0.0 mm 0.00 in0.0 mm 0.02 in0.5 mm
07:11 AM 37.1°F2.8°C 40.6°F4.8°C 88% 5.6 mph W9.0 kmh W 5.7 mph9.2 kmh 29.83 in1010.2 mb 0.00 in0.0 mm 0.00 in0.0 mm 0.02 in0.5 mm
07:14 AM 37.0°F2.8°C 40.4°F4.7°C 88% 2.0 mph SW3.2 kmh SW 2.0 mph3.2 kmh 29.82 in1009.8 mb 0.00 in0.0 mm 0.00 in0.0 mm 0.02 in0.5 mm
07:17 AM 37.0°F2.8°C 40.4°F4.7°C 88% 2.3 mph NNW3.7 kmh NNW 2.3 mph3.7 kmh 29.83 in1010.2 mb 0.00 in0.0 mm 0.00 in0.0 mm 0.02 in0.5 mm
07:20 AM 37.0°F2.8°C 40.1°F4.5°C 87% 7.2 mph W11.6 kmh W 7.2 mph11.6 kmh 29.82 in1009.8 mb 0.00 in0.0 mm 0.00 in0.0 mm 0.02 in0.5 mm
07:23 AM 37.0°F2.8°C 40.6°F4.8°C 88% 3.1 mph WNW5.0 kmh WNW 3.2 mph5.1 kmh 29.83 in1010.2 mb 0.00 in0.0 mm 0.00 in0.0 mm 0.02 in0.5 mm
07:26 AM 37.0°F2.8°C 40.3°F4.6°C 88% 3.5 mph WNW5.6 kmh WNW 3.5 mph5.6 kmh 29.82 in1009.8 mb 0.00 in0.0 mm 0.00 in0.0 mm 0.02 in0.5 mm
07:29 AM 36.8°F2.7°C 40.6°F4.8°C 88% 2.4 mph W3.9 kmh W 2.4 mph3.9 kmh 29.82 in1009.8 mb 0.00 in0.0 mm 0.00 in0.0 mm 0.02 in0.5 mm
07:32 AM 36.8°F2.7°C 40.3°F4.6°C 88% Calm Calm -- 29.83 in1010.2 mb 0.00 in0.0 mm 0.00 in0.0 mm 0.02 in0.5 mm
07:35 AM 36.8°F2.7°C 40.3°F4.6°C 88% 0.8 mph NNW1.3 kmh NNW 0.8 mph1.3 kmh 29.82 in1009.8 mb 0.00 in0.0 mm 0.00 in0.0 mm 0.02 in0.5 mm
07:38 AM 36.8°F2.7°C 40.5°F4.7°C 88% 4.0 mph W6.4 kmh W 4.0 mph6.4 kmh 29.82 in1009.8 mb 0.00 in0.0 mm 0.00 in0.0 mm 0.02 in0.5 mm
07:41 AM 36.8°F2.7°C 40.7°F4.8°C 88% Calm Calm -- 29.83 in1010.2 mb 0.00 in0.0 mm 0.00 in0.0 mm 0.02 in0.5 mm
07:44 AM 37.0°F2.8°C 40.4°F4.7°C 88% 0.8 mph NW1.3 kmh NW 0.8 mph1.3 kmh 29.83 in1010.2 mb 0.00 in0.0 mm 0.00 in0.0 mm 0.02 in0.5 mm
07:47 AM 37.0°F2.8°C 40.5°F4.7°C 88% 2.4 mph W3.9 kmh W 2.4 mph3.9 kmh 29.83 in1010.2 mb 0.00 in0.0 mm 0.00 in0.0 mm 0.02 in0.5 mm
07:50 AM 37.0°F2.8°C 40.4°F4.7°C 88% 0.8 mph NNW1.3 kmh NNW 0.8 mph1.3 kmh 29.83 in1010.2 mb 0.00 in0.0 mm 0.00 in0.0 mm 0.02 in0.5 mm
07:53 AM 37.0°F2.8°C 40.5°F4.7°C 88% 3.2 mph NNW5.1 kmh NNW 3.3 mph5.3 kmh 29.83 in1010.2 mb 0.00 in0.0 mm 0.00 in0.0 mm 0.02 in0.5 mm
07:56 AM 37.0°F2.8°C 40.4°F4.7°C 88% 5.2 mph NW8.4 kmh NW 5.2 mph8.4 kmh 29.82 in1009.8 mb 0.00 in0.0 mm 0.00 in0.0 mm 0.02 in0.5 mm
07:59 AM 37.0°F2.8°C 40.3°F4.6°C 88% 5.4 mph W8.7 kmh W 5.4 mph8.7 kmh 29.82 in1009.8 mb 0.00 in0.0 mm 0.00 in0.0 mm 0.02 in0.5 mm
08:02 AM 37.0°F2.8°C 40.4°F4.7°C 89% 4.8 mph NNW7.7 kmh NNW 4.8 mph7.7 kmh 29.82 in1009.8 mb 0.00 in0.0 mm 0.00 in0.0 mm 0.02 in0.5 mm
08:05 AM 37.1°F2.8°C 40.2°F4.6°C 89% 0.8 mph NW1.3 kmh NW 0.8 mph1.3 kmh 29.83 in1010.2 mb 0.00 in0.0 mm 0.00 in0.0 mm 0.02 in0.5 mm
08:08 AM 37.1°F2.8°C 40.5°F4.7°C 88% Calm Calm -- 29.82 in1009.8 mb 0.00 in0.0 mm 0.00 in0.0 mm 0.02 in0.5 mm
08:11 AM 37.1°F2.8°C 40.4°F4.7°C 88% 1.2 mph WNW1.9 kmh WNW 1.2 mph1.9 kmh 29.82 in1009.8 mb 0.00 in0.0 mm 0.00 in0.0 mm 0.02 in0.5 mm
08:14 AM 37.2°F2.9°C 40.5°F4.7°C 88% 3.2 mph WNW5.1 kmh WNW 3.3 mph5.3 kmh 29.82 in1009.8 mb 0.00 in0.0 mm 0.00 in0.0 mm 0.02 in0.5 mm
08:17 AM 37.2°F2.9°C 40.6°F4.8°C 88% 3.9 mph NW6.3 kmh NW 4.0 mph6.4 kmh 29.82 in1009.8 mb 0.00 in0.0 mm 0.00 in0.0 mm 0.02 in0.5 mm
08:20 AM 37.3°F2.9°C 40.5°F4.7°C 89% 1.2 mph WSW1.9 kmh WSW 1.2 mph1.9 kmh 29.82 in1009.8 mb 0.00 in0.0 mm 0.00 in0.0 mm 0.02 in0.5 mm
08:23 AM 37.3°F2.9°C 40.3°F4.6°C 89% 0.8 mph NNW1.3 kmh NNW 0.8 mph1.3 kmh 29.81 in1009.5 mb 0.00 in0.0 mm 0.00 in0.0 mm 0.02 in0.5 mm
08:26 AM 37.3°F2.9°C 40.6°F4.8°C 88% 0.4 mph NW0.6 kmh NW 0.4 mph0.6 kmh 29.82 in1009.8 mb 0.00 in0.0 mm 0.00 in0.0 mm 0.02 in0.5 mm
08:29 AM 37.3°F2.9°C 40.7°F4.8°C 89% 1.6 mph NNW2.6 kmh NNW 1.6 mph2.6 kmh 29.82 in1009.8 mb 0.00 in0.0 mm 0.00 in0.0 mm 0.02 in0.5 mm
08:32 AM 37.4°F3.0°C 40.2°F4.6°C 87% 0.8 mph NW1.3 kmh NW 0.8 mph1.3 kmh 29.81 in1009.5 mb 0.00 in0.0 mm 0.00 in0.0 mm 0.02 in0.5 mm
08:35 AM 37.5°F3.1°C 40.7°F4.8°C 88% 1.2 mph W1.9 kmh W 1.2 mph1.9 kmh 29.81 in1009.5 mb 0.00 in0.0 mm 0.00 in0.0 mm 0.02 in0.5 mm
08:38 AM 37.5°F3.1°C 40.7°F4.8°C 89% 1.6 mph NW2.6 kmh NW 1.6 mph2.6 kmh 29.82 in1009.8 mb 0.00 in0.0 mm 0.00 in0.0 mm 0.02 in0.5 mm
08:41 AM 37.5°F3.1°C 40.9°F4.9°C 89% 3.2 mph W5.1 kmh W 3.2 mph5.1 kmh 29.81 in1009.5 mb 0.00 in0.0 mm 0.00 in0.0 mm 0.02 in0.5 mm
08:44 AM 37.6°F3.1°C 40.7°F4.8°C 89% 2.7 mph WNW4.3 kmh WNW 2.9 mph4.7 kmh 29.81 in1009.5 mb 0.00 in0.0 mm 0.00 in0.0 mm 0.02 in0.5 mm
08:47 AM 37.5°F3.1°C 40.4°F4.7°C 87% 2.4 mph W3.9 kmh W 2.4 mph3.9 kmh 29.81 in1009.5 mb 0.00 in0.0 mm 0.00 in0.0 mm 0.02 in0.5 mm
08:50 AM 37.6°F3.1°C 41.0°F5.0°C 89% Calm Calm -- 29.81 in1009.5 mb 0.00 in0.0 mm 0.00 in0.0 mm 0.02 in0.5 mm
08:53 AM 37.6°F3.1°C 41.2°F5.1°C 89% 1.9 mph W3.1 kmh W 2.0 mph3.2 kmh 29.81 in1009.5 mb 0.00 in0.0 mm 0.00 in0.0 mm 0.02 in0.5 mm
08:56 AM 37.7°F3.2°C 40.9°F4.9°C 89% 3.2 mph NW5.1 kmh NW 3.3 mph5.3 kmh 29.81 in1009.5 mb 0.00 in0.0 mm 0.00 in0.0 mm 0.02 in0.5 mm
08:59 AM 37.7°F3.2°C 40.9°F4.9°C 89% 2.0 mph W3.2 kmh W 2.0 mph3.2 kmh 29.81 in1009.5 mb 0.00 in0.0 mm 0.00 in0.0 mm 0.02 in0.5 mm
09:02 AM 37.7°F3.2°C 41.0°F5.0°C 89% 3.2 mph W5.1 kmh W 3.2 mph5.1 kmh 29.81 in1009.5 mb 0.00 in0.0 mm 0.00 in0.0 mm 0.02 in0.5 mm
09:05 AM 37.9°F3.3°C 40.8°F4.9°C 88% 6.1 mph NW9.8 kmh NW 6.1 mph9.8 kmh 29.81 in1009.5 mb 0.00 in0.0 mm 0.00 in0.0 mm 0.02 in0.5 mm
09:08 AM 37.9°F3.3°C 40.8°F4.9°C 89% 3.2 mph NNW5.1 kmh NNW 3.3 mph5.3 kmh 29.81 in1009.5 mb 0.00 in0.0 mm 0.00 in0.0 mm 0.02 in0.5 mm
09:11 AM 38.0°F3.3°C 41.2°F5.1°C 89% 3.1 mph WSW5.0 kmh WSW 3.1 mph5.0 kmh 29.81 in1009.5 mb 0.00 in0.0 mm 0.00 in0.0 mm 0.02 in0.5 mm
09:14 AM 37.9°F3.3°C 41.1°F5.1°C 88% 0.8 mph WNW1.3 kmh WNW 0.8 mph1.3 kmh 29.81 in1009.5 mb 0.00 in0.0 mm 0.00 in0.0 mm 0.02 in0.5 mm
09:17 AM 37.9°F3.3°C 40.8°F4.9°C 88% 2.0 mph NNW3.2 kmh NNW 2.0 mph3.2 kmh 29.81 in1009.5 mb 0.00 in0.0 mm 0.00 in0.0 mm 0.02 in0.5 mm
09:20 AM 38.0°F3.3°C 41.1°F5.1°C 88% 2.0 mph W3.2 kmh W 2.0 mph3.2 kmh 29.80 in1009.1 mb 0.00 in0.0 mm 0.00 in0.0 mm 0.02 in0.5 mm
09:23 AM 38.0°F3.3°C 41.2°F5.1°C 88% 0.4 mph NNW0.6 kmh NNW 0.4 mph0.6 kmh 29.81 in1009.5 mb 0.00 in0.0 mm 0.00 in0.0 mm 0.02 in0.5 mm
09:26 AM 38.1°F3.4°C 41.2°F5.1°C 88% 2.8 mph NNW4.5 kmh NNW 2.8 mph4.5 kmh 29.80 in1009.1 mb 0.00 in0.0 mm 0.00 in0.0 mm 0.02 in0.5 mm
09:32 AM 38.2°F3.4°C 41.2°F5.1°C 89% 3.4 mph NNW5.5 kmh NNW 3.4 mph5.5 kmh 29.80 in1009.1 mb 0.00 in0.0 mm 0.00 in0.0 mm 0.02 in0.5 mm
09:35 AM 38.3°F3.5°C 40.9°F4.9°C 88% 3.6 mph NW5.8 kmh NW 3.7 mph6.0 kmh 29.81 in1009.5 mb 0.00 in0.0 mm 0.00 in0.0 mm 0.02 in0.5 mm
09:38 AM 38.4°F3.6°C 41.3°F5.2°C 88% 3.6 mph WNW5.8 kmh WNW 3.7 mph6.0 kmh 29.81 in1009.5 mb 0.00 in0.0 mm 0.00 in0.0 mm 0.02 in0.5 mm
09:41 AM 38.5°F3.6°C 41.4°F5.2°C 88% 1.2 mph NNW1.9 kmh NNW 1.2 mph1.9 kmh 29.81 in1009.5 mb 0.00 in0.0 mm 0.00 in0.0 mm 0.02 in0.5 mm
09:44 AM 38.5°F3.6°C 41.4°F5.2°C 88% 6.9 mph NNW11.1 kmh NNW 6.9 mph11.1 kmh 29.81 in1009.5 mb 0.00 in0.0 mm 0.00 in0.0 mm 0.02 in0.5 mm
09:47 AM 38.5°F3.6°C 41.4°F5.2°C 88% 5.3 mph WSW8.5 kmh WSW 5.3 mph8.5 kmh 29.80 in1009.1 mb 0.00 in0.0 mm 0.00 in0.0 mm 0.02 in0.5 mm
09:50 AM 38.6°F3.7°C 41.1°F5.1°C 88% 5.2 mph WSW8.4 kmh WSW 5.3 mph8.5 kmh 29.80 in1009.1 mb 0.00 in0.0 mm 0.00 in0.0 mm 0.02 in0.5 mm
09:53 AM 38.6°F3.7°C 41.2°F5.1°C 88% 2.0 mph W3.2 kmh W 2.0 mph3.2 kmh 29.80 in1009.1 mb 0.00 in0.0 mm 0.00 in0.0 mm 0.02 in0.5 mm
09:56 AM 38.8°F3.8°C 41.2°F5.1°C 88% 7.9 mph WSW12.7 kmh WSW 8.0 mph12.9 kmh 29.80 in1009.1 mb 0.00 in0.0 mm 0.00 in0.0 mm 0.02 in0.5 mm
09:59 AM 38.8°F3.8°C 41.5°F5.3°C 88% 4.0 mph NNW6.4 kmh NNW 4.1 mph6.6 kmh 29.79 in1008.8 mb 0.00 in0.0 mm 0.00 in0.0 mm 0.02 in0.5 mm
10:02 AM 38.9°F3.8°C 41.5°F5.3°C 88% 2.8 mph W4.5 kmh W 2.9 mph4.7 kmh 29.79 in1008.8 mb 0.00 in0.0 mm 0.00 in0.0 mm 0.02 in0.5 mm
10:05 AM 38.9°F3.8°C 41.4°F5.2°C 88% 0.8 mph WNW1.3 kmh WNW 0.8 mph1.3 kmh 29.79 in1008.8 mb 0.00 in0.0 mm 0.00 in0.0 mm 0.02 in0.5 mm
10:08 AM 39.0°F3.9°C 41.7°F5.4°C 88% 5.9 mph NNW9.5 kmh NNW 5.9 mph9.5 kmh 29.79 in1008.8 mb 0.00 in0.0 mm 0.00 in0.0 mm 0.02 in0.5 mm
10:11 AM 39.0°F3.9°C 41.6°F5.3°C 88% 5.2 mph W8.4 kmh W 5.2 mph8.4 kmh 29.79 in1008.8 mb 0.00 in0.0 mm 0.00 in0.0 mm 0.02 in0.5 mm
10:14 AM 39.1°F3.9°C 41.5°F5.3°C 88% 2.8 mph NNW4.5 kmh NNW 2.8 mph4.5 kmh 29.79 in1008.8 mb 0.00 in0.0 mm 0.00 in0.0 mm 0.02 in0.5 mm
10:17 AM 39.1°F3.9°C 41.5°F5.3°C 88% 3.1 mph W5.0 kmh W 3.1 mph5.0 kmh 29.79 in1008.8 mb 0.00 in0.0 mm 0.00 in0.0 mm 0.02 in0.5 mm
10:20 AM 39.2°F4.0°C 41.7°F5.4°C 88% 5.2 mph W8.4 kmh W 5.2 mph8.4 kmh 29.79 in1008.8 mb 0.00 in0.0 mm 0.00 in0.0 mm 0.02 in0.5 mm
10:23 AM 39.2°F4.0°C 41.4°F5.2°C 88% 7.1 mph W11.4 kmh W 7.2 mph11.6 kmh 29.79 in1008.8 mb 0.00 in0.0 mm 0.00 in0.0 mm 0.02 in0.5 mm
10:26 AM 39.3°F4.1°C 41.6°F5.3°C 88% 10.0 mph WSW16.1 kmh WSW 10.1 mph16.3 kmh 29.79 in1008.8 mb 0.00 in0.0 mm 0.00 in0.0 mm 0.02 in0.5 mm
10:29 AM 39.2°F4.0°C 41.8°F5.4°C 88% 8.1 mph NNW13.0 kmh NNW 8.2 mph13.2 kmh 29.79 in1008.8 mb 0.00 in0.0 mm 0.00 in0.0 mm 0.02 in0.5 mm
10:32 AM 39.3°F4.1°C 41.7°F5.4°C 88% 6.9 mph NNW11.1 kmh NNW 6.9 mph11.1 kmh 29.79 in1008.8 mb 0.00 in0.0 mm 0.00 in0.0 mm 0.02 in0.5 mm
10:35 AM 39.5°F4.2°C 41.7°F5.4°C 88% 7.2 mph NNW11.6 kmh NNW 7.3 mph11.7 kmh 29.79 in1008.8 mb 0.00 in0.0 mm 0.00 in0.0 mm 0.02 in0.5 mm
10:38 AM 39.7°F4.3°C 41.7°F5.4°C 88% 4.0 mph WNW6.4 kmh WNW 4.0 mph6.4 kmh 29.78 in1008.5 mb 0.00 in0.0 mm 0.00 in0.0 mm 0.02 in0.5 mm
10:41 AM 39.7°F4.3°C 41.9°F5.5°C 88% 3.6 mph NNW5.8 kmh NNW 3.7 mph6.0 kmh 29.77 in1008.1 mb 0.00 in0.0 mm 0.00 in0.0 mm 0.02 in0.5 mm
10:44 AM 39.8°F4.3°C 41.9°F5.5°C 87% 6.0 mph WSW9.7 kmh WSW 6.0 mph9.7 kmh 29.77 in1008.1 mb 0.00 in0.0 mm 0.00 in0.0 mm 0.02 in0.5 mm
10:47 AM 39.9°F4.4°C 41.9°F5.5°C 87% 5.0 mph WNW8.0 kmh WNW 5.1 mph8.2 kmh 29.77 in1008.1 mb 0.00 in0.0 mm 0.00 in0.0 mm 0.02 in0.5 mm
10:50 AM 40.0°F4.4°C 41.9°F5.5°C 87% 1.2 mph NW1.9 kmh NW 1.2 mph1.9 kmh 29.77 in1008.1 mb 0.00 in0.0 mm 0.00 in0.0 mm 0.02 in0.5 mm
10:53 AM 40.1°F4.5°C 41.9°F5.5°C 87% 4.9 mph W7.9 kmh W 4.9 mph7.9 kmh 29.77 in1008.1 mb 0.00 in0.0 mm 0.00 in0.0 mm 0.02 in0.5 mm
10:56 AM 40.3°F4.6°C 42.1°F5.6°C 87% 4.0 mph W6.4 kmh W 4.1 mph6.6 kmh 29.77 in1008.1 mb 0.00 in0.0 mm 0.00 in0.0 mm 0.02 in0.5 mm
10:59 AM 40.3°F4.6°C 41.9°F5.5°C 86% 1.2 mph WSW1.9 kmh WSW 1.2 mph1.9 kmh 29.77 in1008.1 mb 0.00 in0.0 mm 0.00 in0.0 mm 0.02 in0.5 mm
11:02 AM 40.2°F4.6°C 41.7°F5.4°C 86% 6.4 mph NNW10.3 kmh NNW 6.5 mph10.5 kmh 29.77 in1008.1 mb 0.00 in0.0 mm 0.00 in0.0 mm 0.02 in0.5 mm
11:05 AM 40.1°F4.5°C 42.2°F5.7°C 87% 8.8 mph W14.2 kmh W 8.9 mph14.3 kmh 29.77 in1008.1 mb 0.00 in0.0 mm 0.00 in0.0 mm 0.02 in0.5 mm
11:08 AM 40.0°F4.4°C 42.2°F5.7°C 87% 0.8 mph WNW1.3 kmh WNW 0.8 mph1.3 kmh 29.77 in1008.1 mb 0.00 in0.0 mm 0.00 in0.0 mm 0.02 in0.5 mm
11:11 AM 40.0°F4.4°C 42.3°F5.7°C 87% 3.9 mph WNW6.3 kmh WNW 3.9 mph6.3 kmh 29.77 in1008.1 mb 0.00 in0.0 mm 0.00 in0.0 mm 0.02 in0.5 mm
11:14 AM 40.1°F4.5°C 42.4°F5.8°C 87% 2.4 mph NNW3.9 kmh NNW 2.4 mph3.9 kmh 29.77 in1008.1 mb 0.00 in0.0 mm 0.00 in0.0 mm 0.02 in0.5 mm
11:17 AM 40.2°F4.6°C 41.9°F5.5°C 86% 3.2 mph NNW5.1 kmh NNW 3.2 mph5.1 kmh 29.77 in1008.1 mb 0.00 in0.0 mm 0.00 in0.0 mm 0.02 in0.5 mm
11:20 AM 40.1°F4.5°C 42.1°F5.6°C 87% 0.4 mph SW0.6 kmh SW 0.4 mph0.6 kmh 29.76 in1007.8 mb 0.00 in0.0 mm 0.00 in0.0 mm 0.02 in0.5 mm
11:23 AM 40.2°F4.6°C 42.2°F5.7°C 86% 2.4 mph NNW3.9 kmh NNW 2.4 mph3.9 kmh 29.76 in1007.8 mb 0.00 in0.0 mm 0.00 in0.0 mm 0.02 in0.5 mm
11:26 AM 40.2°F4.6°C 42.0°F5.6°C 86% 3.2 mph NNW5.1 kmh NNW 3.3 mph5.3 kmh 29.76 in1007.8 mb 0.00 in0.0 mm 0.00 in0.0 mm 0.02 in0.5 mm
11:29 AM 40.3°F4.6°C 42.2°F5.7°C 86% 6.0 mph NNW9.7 kmh NNW 6.0 mph9.7 kmh 29.76 in1007.8 mb 0.00 in0.0 mm 0.00 in0.0 mm 0.02 in0.5 mm
11:32 AM 40.3°F4.6°C 42.0°F5.6°C 86% 3.2 mph W5.1 kmh W 3.2 mph5.1 kmh 29.76 in1007.8 mb 0.00 in0.0 mm 0.00 in0.0 mm 0.02 in0.5 mm
11:35 AM 40.3°F4.6°C 42.1°F5.6°C 86% 4.4 mph W7.1 kmh W 4.4 mph7.1 kmh 29.75 in1007.5 mb 0.00 in0.0 mm 0.00 in0.0 mm 0.02 in0.5 mm
11:41 AM 40.3°F4.6°C 42.3°F5.7°C 86% 0.4 mph NW0.6 kmh NW 0.4 mph0.6 kmh 29.75 in1007.5 mb 0.00 in0.0 mm 0.00 in0.0 mm 0.02 in0.5 mm
11:44 AM 40.2°F4.6°C 42.4°F5.8°C 86% 4.2 mph W6.8 kmh W 4.5 mph7.2 kmh 29.75 in1007.5 mb 0.00 in0.0 mm 0.00 in0.0 mm 0.02 in0.5 mm
11:47 AM 40.3°F4.6°C 42.2°F5.7°C 86% 1.6 mph WNW2.6 kmh WNW 1.6 mph2.6 kmh 29.74 in1007.1 mb 0.00 in0.0 mm 0.00 in0.0 mm 0.02 in0.5 mm
11:50 AM 40.4°F4.7°C 42.0°F5.6°C 86% 8.1 mph W13.0 kmh W 8.1 mph13.0 kmh 29.74 in1007.1 mb 0.00 in0.0 mm 0.00 in0.0 mm 0.02 in0.5 mm
11:53 AM 40.4°F4.7°C 42.0°F5.6°C 86% 4.9 mph NNW7.9 kmh NNW 4.9 mph7.9 kmh 29.74 in1007.1 mb 0.00 in0.0 mm 0.00 in0.0 mm 0.02 in0.5 mm
11:56 AM 40.4°F4.7°C 42.2°F5.7°C 86% 4.4 mph NNW7.1 kmh NNW 4.5 mph7.2 kmh 29.74 in1007.1 mb 0.00 in0.0 mm 0.00 in0.0 mm 0.02 in0.5 mm
11:59 AM 40.6°F4.8°C 42.4°F5.8°C 86% 4.8 mph NW7.7 kmh NW 4.9 mph7.9 kmh 29.74 in1007.1 mb 0.00 in0.0 mm 0.00 in0.0 mm 0.02 in0.5 mm
12:02 PM 40.7°F4.8°C 42.1°F5.6°C 86% 3.6 mph WSW5.8 kmh WSW 3.7 mph6.0 kmh 29.74 in1007.1 mb 0.00 in0.0 mm 0.00 in0.0 mm 0.02 in0.5 mm
12:05 PM 40.7°F4.8°C 42.4°F5.8°C 86% 5.2 mph WNW8.4 kmh WNW 5.2 mph8.4 kmh 29.74 in1007.1 mb 0.00 in0.0 mm 0.00 in0.0 mm 0.02 in0.5 mm
12:08 PM 40.7°F4.8°C 42.3°F5.7°C 86% 6.5 mph W10.5 kmh W 6.5 mph10.5 kmh 29.74 in1007.1 mb 0.00 in0.0 mm 0.00 in0.0 mm 0.02 in0.5 mm
12:11 PM 40.7°F4.8°C 41.8°F5.4°C 84% 5.2 mph NW8.4 kmh NW 5.2 mph8.4 kmh 29.74 in1007.1 mb 0.00 in0.0 mm 0.00 in0.0 mm 0.02 in0.5 mm
12:14 PM 41.0°F5.0°C 41.9°F5.5°C 84% 3.1 mph W5.0 kmh W 3.3 mph5.3 kmh 29.74 in1007.1 mb 0.00 in0.0 mm 0.00 in0.0 mm 0.02 in0.5 mm
12:17 PM 41.1°F5.1°C 42.4°F5.8°C 86% 4.4 mph WSW7.1 kmh WSW 4.5 mph7.2 kmh 29.73 in1006.8 mb 0.00 in0.0 mm 0.00 in0.0 mm 0.02 in0.5 mm
12:20 PM 41.0°F5.0°C 42.3°F5.7°C 85% 1.6 mph NW2.6 kmh NW 1.6 mph2.6 kmh 29.73 in1006.8 mb 0.00 in0.0 mm 0.00 in0.0 mm 0.02 in0.5 mm
12:23 PM 41.0°F5.0°C 42.6°F5.9°C 85% 4.4 mph W7.1 kmh W 4.5 mph7.2 kmh 29.73 in1006.8 mb 0.00 in0.0 mm 0.00 in0.0 mm 0.02 in0.5 mm
12:26 PM 40.9°F4.9°C 42.3°F5.7°C 85% 6.0 mph WNW9.7 kmh WNW 6.0 mph9.7 kmh 29.73 in1006.8 mb 0.00 in0.0 mm 0.00 in0.0 mm 0.02 in0.5 mm
12:29 PM 40.9°F4.9°C 42.6°F5.9°C 85% 6.9 mph W11.1 kmh W 6.9 mph11.1 kmh 29.73 in1006.8 mb 0.00 in0.0 mm 0.00 in0.0 mm 0.02 in0.5 mm
12:32 PM 40.8°F4.9°C 42.5°F5.8°C 85% 2.4 mph WNW3.9 kmh WNW 2.4 mph3.9 kmh 29.73 in1006.8 mb 0.00 in0.0 mm 0.00 in0.0 mm 0.02 in0.5 mm
12:35 PM 40.7°F4.8°C 42.3°F5.7°C 85% 8.1 mph W13.0 kmh W 8.2 mph13.2 kmh 29.73 in1006.8 mb 0.00 in0.0 mm 0.00 in0.0 mm 0.02 in0.5 mm
12:38 PM 40.8°F4.9°C 42.5°F5.8°C 85% 1.2 mph NW1.9 kmh NW 1.2 mph1.9 kmh 29.72 in1006.4 mb 0.00 in0.0 mm 0.00 in0.0 mm 0.02 in0.5 mm
12:41 PM 40.8°F4.9°C 42.6°F5.9°C 85% 8.8 mph W14.2 kmh W 8.9 mph14.3 kmh 29.72 in1006.4 mb 0.00 in0.0 mm 0.00 in0.0 mm 0.02 in0.5 mm
12:44 PM 40.7°F4.8°C 42.5°F5.8°C 85% 5.6 mph W9.0 kmh W 5.6 mph9.0 kmh 29.72 in1006.4 mb 0.00 in0.0 mm 0.00 in0.0 mm 0.02 in0.5 mm
12:47 PM 40.6°F4.8°C 42.8°F6.0°C 85% 2.4 mph NNW3.9 kmh NNW 2.4 mph3.9 kmh 29.72 in1006.4 mb 0.00 in0.0 mm 0.00 in0.0 mm 0.02 in0.5 mm
12:50 PM 40.7°F4.8°C 42.6°F5.9°C 85% 3.6 mph NNW5.8 kmh NNW 3.7 mph6.0 kmh 29.72 in1006.4 mb 0.00 in0.0 mm 0.00 in0.0 mm 0.02 in0.5 mm
12:53 PM 40.6°F4.8°C 42.5°F5.8°C 85% 4.4 mph NNW7.1 kmh NNW 4.4 mph7.1 kmh 29.72 in1006.4 mb 0.00 in0.0 mm 0.00 in0.0 mm 0.02 in0.5 mm
12:56 PM 40.4°F4.7°C 42.4°F5.8°C 85% 7.5 mph W12.1 kmh W 7.6 mph12.2 kmh 29.72 in1006.4 mb 0.00 in0.0 mm 0.00 in0.0 mm 0.02 in0.5 mm
12:59 PM 40.4°F4.7°C 42.7°F5.9°C 85% 7.7 mph WNW12.4 kmh WNW 7.7 mph12.4 kmh 29.71 in1006.1 mb 0.00 in0.0 mm 0.00 in0.0 mm 0.02 in0.5 mm
01:02 PM 40.4°F4.7°C 42.5°F5.8°C 85% 4.8 mph NNW7.7 kmh NNW 4.9 mph7.9 kmh 29.71 in1006.1 mb 0.00 in0.0 mm 0.00 in0.0 mm 0.02 in0.5 mm
01:05 PM 40.4°F4.7°C 42.4°F5.8°C 85% 5.4 mph NNW8.7 kmh NNW 5.5 mph8.9 kmh 29.71 in1006.1 mb 0.00 in0.0 mm 0.00 in0.0 mm 0.02 in0.5 mm
01:08 PM 40.4°F4.7°C 42.6°F5.9°C 85% 2.4 mph W3.9 kmh W 2.4 mph3.9 kmh 29.71 in1006.1 mb 0.00 in0.0 mm 0.00 in0.0 mm 0.02 in0.5 mm
01:11 PM 40.3°F4.6°C 42.7°F5.9°C 86% 4.9 mph WNW7.9 kmh WNW 4.9 mph7.9 kmh 29.70 in1005.8 mb 0.00 in0.0 mm 0.00 in0.0 mm 0.02 in0.5 mm
01:14 PM 40.3°F4.6°C 42.4°F5.8°C 85% 4.2 mph NNW6.8 kmh NNW 4.5 mph7.2 kmh 29.70 in1005.8 mb 0.00 in0.0 mm 0.00 in0.0 mm 0.02 in0.5 mm
01:17 PM 40.2°F4.6°C 42.5°F5.8°C 85% 2.8 mph W4.5 kmh W 2.9 mph4.7 kmh 29.70 in1005.8 mb 0.00 in0.0 mm 0.00 in0.0 mm 0.02 in0.5 mm
01:20 PM 40.2°F4.6°C 42.2°F5.7°C 84% 1.2 mph NW1.9 kmh NW 1.2 mph1.9 kmh 29.70 in1005.8 mb 0.00 in0.0 mm 0.00 in0.0 mm 0.02 in0.5 mm
01:23 PM 40.1°F4.5°C 42.7°F5.9°C 85% 1.6 mph W2.6 kmh W 1.6 mph2.6 kmh 29.70 in1005.8 mb 0.00 in0.0 mm 0.00 in0.0 mm 0.02 in0.5 mm
01:26 PM 40.1°F4.5°C 42.5°F5.8°C 86% 5.6 mph W9.0 kmh W 5.6 mph9.0 kmh 29.69 in1005.4 mb 0.00 in0.0 mm 0.00 in0.0 mm 0.02 in0.5 mm
01:29 PM 40.1°F4.5°C 42.9°F6.1°C 86% 2.8 mph W4.5 kmh W 2.9 mph4.7 kmh 29.70 in1005.8 mb 0.00 in0.0 mm 0.00 in0.0 mm 0.02 in0.5 mm
01:32 PM 40.1°F4.5°C 42.9°F6.1°C 86% 4.8 mph WSW7.7 kmh WSW 4.9 mph7.9 kmh 29.69 in1005.4 mb 0.00 in0.0 mm 0.00 in0.0 mm 0.02 in0.5 mm
01:35 PM 40.1°F4.5°C 42.8°F6.0°C 86% 2.0 mph NW3.2 kmh NW 2.0 mph3.2 kmh 29.69 in1005.4 mb 0.00 in0.0 mm 0.00 in0.0 mm 0.02 in0.5 mm
01:38 PM 40.0°F4.4°C 42.8°F6.0°C 86% 1.6 mph NW2.6 kmh NW 1.6 mph2.6 kmh 29.69 in1005.4 mb 0.00 in0.0 mm 0.00 in0.0 mm 0.02 in0.5 mm
01:41 PM 39.9°F4.4°C 43.0°F6.1°C 87% 4.4 mph NNW7.1 kmh NNW 4.4 mph7.1 kmh 29.69 in1005.4 mb 0.00 in0.0 mm 0.00 in0.0 mm 0.02 in0.5 mm
01:44 PM 39.9°F4.4°C 42.9°F6.1°C 87% 2.4 mph WNW3.9 kmh WNW 2.4 mph3.9 kmh 29.69 in1005.4 mb 0.00 in0.0 mm 0.00 in0.0 mm 0.02 in0.5 mm
01:47 PM 40.0°F4.4°C 43.0°F6.1°C 87% Calm Calm -- 29.69 in1005.4 mb 0.00 in0.0 mm 0.00 in0.0 mm 0.02 in0.5 mm
01:50 PM 40.0°F4.4°C 42.9°F6.1°C 87% 6.0 mph WSW9.7 kmh WSW 6.1 mph9.8 kmh 29.68 in1005.1 mb 0.00 in0.0 mm 0.00 in0.0 mm 0.04 in1.0 mm
01:53 PM 40.0°F4.4°C 43.0°F6.1°C 88% 4.8 mph W7.7 kmh W 4.8 mph7.7 kmh 29.68 in1005.1 mb 0.00 in0.0 mm 0.00 in0.0 mm 0.04 in1.0 mm
01:56 PM 40.0°F4.4°C 43.0°F6.1°C 87% 0.8 mph NNW1.3 kmh NNW 0.8 mph1.3 kmh 29.67 in1004.7 mb 0.00 in0.0 mm 0.00 in0.0 mm 0.04 in1.0 mm
01:59 PM 40.1°F4.5°C 43.0°F6.1°C 87% 1.2 mph NNW1.9 kmh NNW 1.2 mph1.9 kmh 29.67 in1004.7 mb 0.00 in0.0 mm 0.00 in0.0 mm 0.04 in1.0 mm
02:02 PM 40.0°F4.4°C 43.0°F6.1°C 88% 0.4 mph WSW0.6 kmh WSW 0.4 mph0.6 kmh 29.67 in1004.7 mb 0.00 in0.0 mm 0.00 in0.0 mm 0.04 in1.0 mm
02:05 PM 40.1°F4.5°C 43.3°F6.3°C 88% 2.0 mph W3.2 kmh W 2.0 mph3.2 kmh 29.67 in1004.7 mb 0.00 in0.0 mm 0.00 in0.0 mm 0.04 in1.0 mm
02:08 PM 40.1°F4.5°C 43.3°F6.3°C 88% 2.8 mph WSW4.5 kmh WSW 2.8 mph4.5 kmh 29.67 in1004.7 mb 0.00 in0.0 mm 0.00 in0.0 mm 0.04 in1.0 mm
02:11 PM 40.2°F4.6°C 43.3°F6.3°C 88% 5.5 mph NNW8.9 kmh NNW 5.6 mph9.0 kmh 29.67 in1004.7 mb 0.00 in0.0 mm 0.00 in0.0 mm 0.04 in1.0 mm
02:14 PM 40.2°F4.6°C 43.3°F6.3°C 88% 2.0 mph NNW3.2 kmh NNW 2.0 mph3.2 kmh 29.67 in1004.7 mb 0.00 in0.0 mm 0.00 in0.0 mm 0.04 in1.0 mm
02:17 PM 40.2°F4.6°C 43.5°F6.4°C 88% 0.8 mph WSW1.3 kmh WSW 0.8 mph1.3 kmh 29.66 in1004.4 mb 0.00 in0.0 mm 0.00 in0.0 mm 0.04 in1.0 mm
02:20 PM 40.1°F4.5°C 43.4°F6.3°C 88% 4.4 mph WNW7.1 kmh WNW 4.5 mph7.2 kmh 29.66 in1004.4 mb 0.00 in0.0 mm 0.00 in0.0 mm 0.04 in1.0 mm
02:23 PM 40.1°F4.5°C 43.0°F6.1°C 88% 1.6 mph NNW2.6 kmh NNW 1.6 mph2.6 kmh 29.66 in1004.4 mb 0.00 in0.0 mm 0.00 in0.0 mm 0.04 in1.0 mm
02:26 PM 40.0°F4.4°C 43.4°F6.3°C 88% 0.8 mph W1.3 kmh W 0.8 mph1.3 kmh 29.66 in1004.4 mb 0.00 in0.0 mm 0.00 in0.0 mm 0.04 in1.0 mm
02:29 PM 40.0°F4.4°C 42.9°F6.1°C 87% 2.4 mph NNW3.9 kmh NNW 2.4 mph3.9 kmh 29.66 in1004.4 mb 0.00 in0.0 mm 0.00 in0.0 mm 0.06 in1.5 mm
02:32 PM 40.0°F4.4°C 43.3°F6.3°C 88% 6.8 mph NNW10.9 kmh NNW 6.9 mph11.1 kmh 29.66 in1004.4 mb 0.00 in0.0 mm 0.00 in0.0 mm 0.06 in1.5 mm
02:35 PM 40.0°F4.4°C 43.1°F6.2°C 88% 2.4 mph W3.9 kmh W 2.4 mph3.9 kmh 29.66 in1004.4 mb 0.00 in0.0 mm 0.00 in0.0 mm 0.06 in1.5 mm
02:38 PM 39.9°F4.4°C 43.4°F6.3°C 89% 5.2 mph WNW8.4 kmh WNW 5.2 mph8.4 kmh 29.65 in1004.1 mb 0.00 in0.0 mm 0.00 in0.0 mm 0.06 in1.5 mm
02:41 PM 39.9°F4.4°C 43.3°F6.3°C 88% 0.8 mph W1.3 kmh W 0.8 mph1.3 kmh 29.65 in1004.1 mb 0.00 in0.0 mm 0.00 in0.0 mm 0.06 in1.5 mm
02:44 PM 39.8°F4.3°C 43.2°F6.2°C 88% 2.8 mph WNW4.5 kmh WNW 2.8 mph4.5 kmh 29.65 in1004.1 mb 0.00 in0.0 mm 0.00 in0.0 mm 0.06 in1.5 mm
02:47 PM 39.8°F4.3°C 43.3°F6.3°C 88% 4.0 mph WNW6.4 kmh WNW 4.1 mph6.6 kmh 29.65 in1004.1 mb 0.00 in0.0 mm 0.00 in0.0 mm 0.06 in1.5 mm
02:50 PM 39.8°F4.3°C 43.3°F6.3°C 88% 2.3 mph WNW3.7 kmh WNW 2.3 mph3.7 kmh 29.65 in1004.1 mb 0.00 in0.0 mm 0.00 in0.0 mm 0.06 in1.5 mm
02:53 PM 39.8°F4.3°C 43.4°F6.3°C 89% Calm Calm -- 29.65 in1004.1 mb 0.00 in0.0 mm 0.00 in0.0 mm 0.06 in1.5 mm
02:56 PM 39.8°F4.3°C 43.4°F6.3°C 89% 1.6 mph WNW2.6 kmh WNW 1.6 mph2.6 kmh 29.64 in1003.7 mb 0.00 in0.0 mm 0.00 in0.0 mm 0.06 in1.5 mm
02:59 PM 39.9°F4.4°C 43.4°F6.3°C 89% 2.8 mph W4.5 kmh W 2.9 mph4.7 kmh 29.64 in1003.7 mb 0.00 in0.0 mm 0.00 in0.0 mm 0.08 in2.0 mm
03:02 PM 39.8°F4.3°C 43.6°F6.4°C 89% Calm Calm -- 29.64 in1003.7 mb 0.00 in0.0 mm 0.00 in0.0 mm 0.08 in2.0 mm
03:05 PM 39.8°F4.3°C 43.5°F6.4°C 89% 1.2 mph WNW1.9 kmh WNW 1.2 mph1.9 kmh 29.64 in1003.7 mb 0.00 in0.0 mm 0.00 in0.0 mm 0.08 in2.0 mm
03:08 PM 39.8°F4.3°C 43.6°F6.4°C 89% Calm Calm -- 29.64 in1003.7 mb 0.00 in0.0 mm 0.00 in0.0 mm 0.08 in2.0 mm
03:11 PM 39.8°F4.3°C 43.4°F6.3°C 89% 2.4 mph NNW3.9 kmh NNW 2.4 mph3.9 kmh 29.64 in1003.7 mb 0.00 in0.0 mm 0.00 in0.0 mm 0.08 in2.0 mm
03:14 PM 39.8°F4.3°C 43.8°F6.6°C 89% Calm Calm -- 29.64 in1003.7 mb 0.00 in0.0 mm 0.00 in0.0 mm 0.08 in2.0 mm
03:17 PM 39.9°F4.4°C 43.7°F6.5°C 89% 1.6 mph W2.6 kmh W 1.6 mph2.6 kmh 29.64 in1003.7 mb 0.00 in0.0 mm 0.00 in0.0 mm 0.08 in2.0 mm
03:20 PM 39.8°F4.3°C 43.6°F6.4°C 89% 0.8 mph SW1.3 kmh SW 0.8 mph1.3 kmh 29.64 in1003.7 mb 0.00 in0.0 mm 0.00 in0.0 mm 0.08 in2.0 mm
03:23 PM 39.9°F4.4°C 43.5°F6.4°C 90% 2.4 mph W3.9 kmh W 2.4 mph3.9 kmh 29.64 in1003.7 mb 0.00 in0.0 mm 0.00 in0.0 mm 0.08 in2.0 mm
03:26 PM 39.9°F4.4°C 43.5°F6.4°C 89% 1.2 mph W1.9 kmh W 1.2 mph1.9 kmh 29.63 in1003.4 mb 0.00 in0.0 mm 0.00 in0.0 mm 0.10 in2.5 mm
03:29 PM 39.9°F4.4°C 43.5°F6.4°C 89% 1.6 mph NNW2.6 kmh NNW 1.6 mph2.6 kmh 29.63 in1003.4 mb 0.00 in0.0 mm 0.00 in0.0 mm 0.10 in2.5 mm
03:32 PM 39.9°F4.4°C 43.7°F6.5°C 90% Calm Calm -- 29.63 in1003.4 mb 0.00 in0.0 mm 0.00 in0.0 mm 0.10 in2.5 mm
03:35 PM 39.9°F4.4°C 43.6°F6.4°C 89% 1.6 mph WNW2.6 kmh WNW 1.6 mph2.6 kmh 29.63 in1003.4 mb 0.00 in0.0 mm 0.00 in0.0 mm 0.10 in2.5 mm
03:38 PM 39.9°F4.4°C 43.8°F6.6°C 89% Calm Calm -- 29.63 in1003.4 mb 0.00 in0.0 mm 0.00 in0.0 mm 0.10 in2.5 mm
03:41 PM 39.9°F4.4°C 43.5°F6.4°C 89% 4.0 mph NW6.4 kmh NW 4.1 mph6.6 kmh 29.63 in1003.4 mb 0.00 in0.0 mm 0.00 in0.0 mm 0.10 in2.5 mm
03:44 PM 39.9°F4.4°C 43.6°F6.4°C 90% 1.2 mph NNW1.9 kmh NNW 1.2 mph1.9 kmh 29.63 in1003.4 mb 0.00 in0.0 mm 0.00 in0.0 mm 0.10 in2.5 mm
03:47 PM 39.9°F4.4°C 43.7°F6.5°C 89% 1.2 mph NNW1.9 kmh NNW 1.2 mph1.9 kmh 29.63 in1003.4 mb 0.00 in0.0 mm 0.00 in0.0 mm 0.10 in2.5 mm
03:50 PM 39.9°F4.4°C 44.0°F6.7°C 90% 2.4 mph W3.9 kmh W 2.4 mph3.9 kmh 29.63 in1003.4 mb 0.00 in0.0 mm 0.00 in0.0 mm 0.12 in3.0 mm
03:53 PM 39.9°F4.4°C 43.7°F6.5°C 90% 2.8 mph NW4.5 kmh NW 2.8 mph4.5 kmh 29.62 in1003.0 mb 0.00 in0.0 mm 0.00 in0.0 mm 0.12 in3.0 mm
03:56 PM 39.9°F4.4°C 43.6°F6.4°C 90% 2.8 mph NW4.5 kmh NW 2.9 mph4.7 kmh 29.63 in1003.4 mb 0.00 in0.0 mm 0.00 in0.0 mm 0.12 in3.0 mm
03:59 PM 39.9°F4.4°C 43.9°F6.6°C 90% 1.6 mph NW2.6 kmh NW 1.6 mph2.6 kmh 29.63 in1003.4 mb 0.00 in0.0 mm 0.00 in0.0 mm 0.12 in3.0 mm
04:02 PM 39.9°F4.4°C 43.5°F6.4°C 89% 2.4 mph W3.9 kmh W 2.4 mph3.9 kmh 29.62 in1003.0 mb 0.00 in0.0 mm 0.00 in0.0 mm 0.12 in3.0 mm
04:05 PM 39.9°F4.4°C 43.8°F6.6°C 90% Calm Calm -- 29.62 in1003.0 mb 0.00 in0.0 mm 0.00 in0.0 mm 0.12 in3.0 mm
04:08 PM 39.9°F4.4°C 44.1°F6.7°C 90% Calm Calm -- 29.62 in1003.0 mb 0.00 in0.0 mm 0.00 in0.0 mm 0.12 in3.0 mm
04:11 PM 39.9°F4.4°C 43.9°F6.6°C 90% 0.4 mph WNW0.6 kmh WNW 0.4 mph0.6 kmh 29.62 in1003.0 mb 0.00 in0.0 mm 0.00 in0.0 mm 0.12 in3.0 mm
04:14 PM 39.9°F4.4°C 43.9°F6.6°C 90% 1.2 mph W1.9 kmh W 1.2 mph1.9 kmh 29.62 in1003.0 mb 0.00 in0.0 mm 0.00 in0.0 mm 0.12 in3.0 mm
04:17 PM 39.9°F4.4°C 43.9°F6.6°C 90% 2.4 mph NW3.9 kmh NW 2.4 mph3.9 kmh 29.62 in1003.0 mb 0.00 in0.0 mm 0.00 in0.0 mm 0.14 in3.6 mm
04:20 PM 39.9°F4.4°C 43.8°F6.6°C 90% Calm Calm -- 29.62 in1003.0 mb 0.00 in0.0 mm 0.00 in0.0 mm 0.14 in3.6 mm
04:23 PM 39.9°F4.4°C 44.1°F6.7°C 90% 0.4 mph W0.6 kmh W 0.4 mph0.6 kmh 29.62 in1003.0 mb 0.00 in0.0 mm 0.00 in0.0 mm 0.14 in3.6 mm
04:26 PM 39.9°F4.4°C 43.9°F6.6°C 90% Calm Calm -- 29.62 in1003.0 mb 0.00 in0.0 mm 0.00 in0.0 mm 0.14 in3.6 mm
04:29 PM 39.9°F4.4°C 43.9°F6.6°C 90% Calm Calm -- 29.62 in1003.0 mb 0.00 in0.0 mm 0.00 in0.0 mm 0.14 in3.6 mm
04:32 PM 39.9°F4.4°C 43.8°F6.6°C 90% Calm Calm -- 29.62 in1003.0 mb 0.00 in0.0 mm 0.00 in0.0 mm 0.14 in3.6 mm
04:38 PM 39.9°F4.4°C 43.9°F6.6°C 90% Calm Calm -- 29.61 in1002.7 mb 0.00 in0.0 mm 0.00 in0.0 mm 0.14 in3.6 mm
04:41 PM 39.9°F4.4°C 43.8°F6.6°C 89% Calm Calm -- 29.61 in1002.7 mb 0.00 in0.0 mm 0.00 in0.0 mm 0.14 in3.6 mm
04:44 PM 39.9°F4.4°C 43.7°F6.5°C 89% Calm Calm -- 29.61 in1002.7 mb 0.00 in0.0 mm 0.00 in0.0 mm 0.14 in3.6 mm
04:47 PM 39.9°F4.4°C 44.0°F6.7°C 90% Calm Calm -- 29.61 in1002.7 mb 0.00 in0.0 mm 0.00 in0.0 mm 0.16 in4.1 mm
04:50 PM 39.9°F4.4°C 44.1°F6.7°C 90% Calm Calm -- 29.61 in1002.7 mb 0.00 in0.0 mm 0.00 in0.0 mm 0.16 in4.1 mm
04:53 PM 39.9°F4.4°C 43.6°F6.4°C 88% Calm Calm -- 29.61 in1002.7 mb 0.00 in0.0 mm 0.00 in0.0 mm 0.16 in4.1 mm
04:56 PM 39.8°F4.3°C 44.0°F6.7°C 90% Calm Calm -- 29.60 in1002.4 mb 0.00 in0.0 mm 0.00 in0.0 mm 0.16 in4.1 mm
04:59 PM 39.9°F4.4°C 44.0°F6.7°C 90% Calm Calm -- 29.60 in1002.4 mb 0.00 in0.0 mm 0.00 in0.0 mm 0.16 in4.1 mm
05:02 PM 39.9°F4.4°C 44.0°F6.7°C 90% Calm Calm -- 29.60 in1002.4 mb 0.00 in0.0 mm 0.00 in0.0 mm 0.16 in4.1 mm
05:05 PM 39.9°F4.4°C 43.8°F6.6°C 89% Calm Calm -- 29.60 in1002.4 mb 0.00 in0.0 mm 0.00 in0.0 mm 0.16 in4.1 mm
05:08 PM 39.9°F4.4°C 43.9°F6.6°C 90% Calm Calm -- 29.60 in1002.4 mb 0.00 in0.0 mm 0.00 in0.0 mm 0.16 in4.1 mm
05:11 PM 39.9°F4.4°C 43.7°F6.5°C 90% Calm Calm -- 29.60 in1002.4 mb 0.00 in0.0 mm 0.00 in0.0 mm 0.16 in4.1 mm
05:14 PM 39.9°F4.4°C 43.9°F6.6°C 90% Calm Calm -- 29.60 in1002.4 mb 0.00 in0.0 mm 0.00 in0.0 mm 0.18 in4.6 mm
05:17 PM 39.9°F4.4°C 44.0°F6.7°C 90% Calm Calm -- 29.60 in1002.4 mb 0.00 in0.0 mm 0.00 in0.0 mm 0.18 in4.6 mm
05:20 PM 39.9°F4.4°C 43.8°F6.6°C 89% Calm Calm -- 29.60 in1002.4 mb 0.00 in0.0 mm 0.00 in0.0 mm 0.18 in4.6 mm
05:23 PM 39.9°F4.4°C 43.7°F6.5°C 89% Calm Calm -- 29.60 in1002.4 mb 0.00 in0.0 mm 0.00 in0.0 mm 0.18 in4.6 mm
05:26 PM 39.9°F4.4°C 44.1°F6.7°C 90% Calm Calm -- 29.60 in1002.4 mb 0.00 in0.0 mm 0.00 in0.0 mm 0.18 in4.6 mm
05:29 PM 39.9°F4.4°C 44.1°F6.7°C 90% Calm Calm -- 29.60 in1002.4 mb 0.00 in0.0 mm 0.00 in0.0 mm 0.18 in4.6 mm
05:32 PM 39.9°F4.4°C 44.1°F6.7°C 90% Calm Calm -- 29.60 in1002.4 mb 0.00 in0.0 mm 0.00 in0.0 mm 0.18 in4.6 mm
05:35 PM 39.9°F4.4°C 44.0°F6.7°C 90% Calm Calm -- 29.60 in1002.4 mb 0.00 in0.0 mm 0.00 in0.0 mm 0.20 in5.1 mm
05:38 PM 39.9°F4.4°C 44.2°F6.8°C 90% Calm Calm -- 29.60 in1002.4 mb 0.00 in0.0 mm 0.00 in0.0 mm 0.20 in5.1 mm
05:41 PM 39.9°F4.4°C 44.2°F6.8°C 90% Calm Calm -- 29.60 in1002.4 mb 0.00 in0.0 mm 0.00 in0.0 mm 0.20 in5.1 mm
05:44 PM 39.9°F4.4°C 44.0°F6.7°C 90% Calm Calm -- 29.60 in1002.4 mb 0.00 in0.0 mm 0.00 in0.0 mm 0.20 in5.1 mm
05:47 PM 39.9°F4.4°C 44.3°F6.8°C 90% Calm Calm -- 29.60 in1002.4 mb 0.00 in0.0 mm 0.00 in0.0 mm 0.20 in5.1 mm
05:50 PM 40.0°F4.4°C 43.9°F6.6°C 90% Calm Calm -- 29.60 in1002.4 mb 0.00 in0.0 mm 0.00 in0.0 mm 0.20 in5.1 mm
05:53 PM 39.9°F4.4°C 44.2°F6.8°C 90% Calm Calm -- 29.60 in1002.4 mb 0.00 in0.0 mm 0.00 in0.0 mm 0.22 in5.6 mm
05:56 PM 40.0°F4.4°C 44.1°F6.7°C 90% Calm Calm -- 29.60 in1002.4 mb 0.00 in0.0 mm 0.00 in0.0 mm 0.22 in5.6 mm
05:59 PM 40.0°F4.4°C 44.3°F6.8°C 91% Calm Calm -- 29.60 in1002.4 mb 0.00 in0.0 mm 0.00 in0.0 mm 0.22 in5.6 mm
06:02 PM 40.0°F4.4°C 44.2°F6.8°C 90% Calm Calm -- 29.60 in1002.4 mb 0.00 in0.0 mm 0.00 in0.0 mm 0.22 in5.6 mm
06:05 PM 39.9°F4.4°C 44.2°F6.8°C 90% Calm Calm -- 29.60 in1002.4 mb 0.00 in0.0 mm 0.00 in0.0 mm 0.22 in5.6 mm
06:08 PM 39.9°F4.4°C 44.1°F6.7°C 90% Calm Calm -- 29.60 in1002.4 mb 0.00 in0.0 mm 0.00 in0.0 mm 0.22 in5.6 mm
06:11 PM 39.9°F4.4°C 44.2°F6.8°C 91% Calm Calm -- 29.60 in1002.4 mb 0.00 in0.0 mm 0.00 in0.0 mm 0.22 in5.6 mm
06:14 PM 39.9°F4.4°C 44.2°F6.8°C 90% Calm Calm -- 29.60 in1002.4 mb 0.00 in0.0 mm 0.00 in0.0 mm 0.22 in5.6 mm
06:17 PM 39.9°F4.4°C 44.2°F6.8°C 91% Calm Calm -- 29.60 in1002.4 mb 0.00 in0.0 mm 0.00 in0.0 mm 0.22 in5.6 mm
06:20 PM 39.9°F4.4°C 44.1°F6.7°C 91% Calm Calm -- 29.60 in1002.4 mb 0.00 in0.0 mm 0.00 in0.0 mm 0.22 in5.6 mm
06:23 PM 39.9°F4.4°C 44.4°F6.9°C 91% Calm Calm -- 29.60 in1002.4 mb 0.00 in0.0 mm 0.00 in0.0 mm 0.22 in5.6 mm
06:26 PM 39.9°F4.4°C 44.4°F6.9°C 91% Calm Calm -- 29.60 in1002.4 mb 0.00 in0.0 mm 0.00 in0.0 mm 0.22 in5.6 mm
06:29 PM 39.9°F4.4°C 43.9°F6.6°C 90% Calm Calm -- 29.60 in1002.4 mb 0.00 in0.0 mm 0.00 in0.0 mm 0.22 in5.6 mm
06:32 PM 39.9°F4.4°C 44.4°F6.9°C 91% Calm Calm -- 29.60 in1002.4 mb 0.00 in0.0 mm 0.00 in0.0 mm 0.22 in5.6 mm
06:35 PM 40.0°F4.4°C 44.5°F6.9°C 91% Calm Calm -- 29.60 in1002.4 mb 0.00 in0.0 mm 0.00 in0.0 mm 0.22 in5.6 mm
06:38 PM 40.0°F4.4°C 44.2°F6.8°C 91% Calm Calm -- 29.60 in1002.4 mb 0.00 in0.0 mm 0.00 in0.0 mm 0.24 in6.1 mm
06:41 PM 39.9°F4.4°C 44.5°F6.9°C 91% Calm Calm -- 29.60 in1002.4 mb 0.00 in0.0 mm 0.00 in0.0 mm 0.24 in6.1 mm
06:44 PM 39.9°F4.4°C 43.9°F6.6°C 90% Calm Calm -- 29.60 in1002.4 mb 0.00 in0.0 mm 0.00 in0.0 mm 0.24 in6.1 mm
06:47 PM 39.9°F4.4°C 44.3°F6.8°C 91% Calm Calm -- 29.60 in1002.4 mb 0.00 in0.0 mm 0.00 in0.0 mm 0.24 in6.1 mm
06:50 PM 40.0°F4.4°C 44.2°F6.8°C 90% Calm Calm -- 29.60 in1002.4 mb 0.00 in0.0 mm 0.00 in0.0 mm 0.24 in6.1 mm
06:53 PM 40.0°F4.4°C 44.3°F6.8°C 91% Calm Calm -- 29.60 in1002.4 mb 0.00 in0.0 mm 0.00 in0.0 mm 0.24 in6.1 mm
06:56 PM 40.0°F4.4°C 43.9°F6.6°C 90% Calm Calm -- 29.60 in1002.4 mb 0.00 in0.0 mm 0.00 in0.0 mm 0.24 in6.1 mm
06:59 PM 40.0°F4.4°C 44.3°F6.8°C 91% Calm Calm -- 29.60 in1002.4 mb 0.00 in0.0 mm 0.00 in0.0 mm 0.24 in6.1 mm
07:02 PM 40.1°F4.5°C 44.2°F6.8°C 91% Calm Calm -- 29.60 in1002.4 mb 0.00 in0.0 mm 0.00 in0.0 mm 0.24 in6.1 mm
07:05 PM 40.0°F4.4°C 44.5°F6.9°C 91% Calm Calm -- 29.60 in1002.4 mb 0.00 in0.0 mm 0.00 in0.0 mm 0.24 in6.1 mm
07:08 PM 40.0°F4.4°C 44.2°F6.8°C 91% Calm Calm -- 29.60 in1002.4 mb 0.00 in0.0 mm 0.00 in0.0 mm 0.24 in6.1 mm
07:11 PM 40.0°F4.4°C 44.2°F6.8°C 91% Calm Calm -- 29.61 in1002.7 mb 0.00 in0.0 mm 0.00 in0.0 mm 0.24 in6.1 mm
07:14 PM 40.1°F4.5°C 44.5°F6.9°C 91% Calm Calm -- 29.60 in1002.4 mb 0.00 in0.0 mm 0.00 in0.0 mm 0.24 in6.1 mm
07:17 PM 40.0°F4.4°C 44.5°F6.9°C 91% Calm Calm -- 29.61 in1002.7 mb 0.00 in0.0 mm 0.00 in0.0 mm 0.24 in6.1 mm
07:20 PM 40.0°F4.4°C 44.4°F6.9°C 91% Calm Calm -- 29.60 in1002.4 mb 0.00 in0.0 mm 0.00 in0.0 mm 0.24 in6.1 mm
07:23 PM 40.1°F4.5°C 44.6°F7.0°C 91% Calm Calm -- 29.61 in1002.7 mb 0.00 in0.0 mm 0.00 in0.0 mm 0.24 in6.1 mm
07:26 PM 40.1°F4.5°C 44.3°F6.8°C 91% Calm Calm -- 29.60 in1002.4 mb 0.00 in0.0 mm 0.00 in0.0 mm 0.24 in6.1 mm
07:29 PM 40.1°F4.5°C 44.4°F6.9°C 91% Calm Calm -- 29.60 in1002.4 mb 0.00 in0.0 mm 0.00 in0.0 mm 0.24 in6.1 mm
07:32 PM 40.1°F4.5°C 44.5°F6.9°C 91% Calm Calm -- 29.60 in1002.4 mb 0.00 in0.0 mm 0.00 in0.0 mm 0.24 in6.1 mm
07:35 PM 40.1°F4.5°C 44.7°F7.1°C 91% 0.8 mph W1.3 kmh W 0.8 mph1.3 kmh 29.60 in1002.4 mb 0.00 in0.0 mm 0.00 in0.0 mm 0.24 in6.1 mm
07:38 PM 40.0°F4.4°C 44.5°F6.9°C 91% Calm Calm -- 29.60 in1002.4 mb 0.00 in0.0 mm 0.00 in0.0 mm 0.24 in6.1 mm
07:41 PM 40.1°F4.5°C 44.5°F6.9°C 91% Calm Calm -- 29.60 in1002.4 mb 0.00 in0.0 mm 0.00 in0.0 mm 0.24 in6.1 mm
07:44 PM 40.0°F4.4°C 44.4°F6.9°C 91% Calm Calm -- 29.60 in1002.4 mb 0.00 in0.0 mm 0.00 in0.0 mm 0.24 in6.1 mm
07:47 PM 40.0°F4.4°C 44.4°F6.9°C 91% Calm Calm -- 29.61 in1002.7 mb 0.00 in0.0 mm 0.00 in0.0 mm 0.24 in6.1 mm
07:50 PM 40.0°F4.4°C 44.7°F7.1°C 91% Calm Calm -- 29.60 in1002.4 mb 0.00 in0.0 mm 0.00 in0.0 mm 0.24 in6.1 mm
07:53 PM 40.0°F4.4°C 44.4°F6.9°C 91% Calm Calm -- 29.60 in1002.4 mb 0.00 in0.0 mm 0.00 in0.0 mm 0.24 in6.1 mm
07:56 PM 40.0°F4.4°C 44.4°F6.9°C 91% 0.8 mph NNW1.3 kmh NNW 0.8 mph1.3 kmh 29.60 in1002.4 mb 0.00 in0.0 mm 0.00 in0.0 mm 0.24 in6.1 mm
08:02 PM 40.0°F4.4°C 44.3°F6.8°C 91% Calm Calm -- 29.60 in1002.4 mb 0.00 in0.0 mm 0.00 in0.0 mm 0.24 in6.1 mm
08:05 PM 40.0°F4.4°C 44.5°F6.9°C 91% Calm Calm -- 29.60 in1002.4 mb 0.00 in0.0 mm 0.00 in0.0 mm 0.24 in6.1 mm
08:08 PM 40.1°F4.5°C 44.3°F6.8°C 91% 0.4 mph SW0.6 kmh SW 0.4 mph0.6 kmh 29.60 in1002.4 mb 0.00 in0.0 mm 0.00 in0.0 mm 0.24 in6.1 mm
08:11 PM 40.0°F4.4°C 44.2°F6.8°C 91% Calm Calm -- 29.60 in1002.4 mb 0.00 in0.0 mm 0.00 in0.0 mm 0.24 in6.1 mm
08:17 PM 40.0°F4.4°C 44.5°F6.9°C 91% Calm Calm -- 29.60 in1002.4 mb 0.00 in0.0 mm 0.00 in0.0 mm 0.24 in6.1 mm
08:23 PM 40.1°F4.5°C 44.4°F6.9°C 91% Calm Calm -- 29.62 in1003.0 mb 0.00 in0.0 mm 0.00 in0.0 mm 0.24 in6.1 mm
08:26 PM 40.1°F4.5°C 44.5°F6.9°C 91% Calm Calm -- 29.61 in1002.7 mb 0.00 in0.0 mm 0.00 in0.0 mm 0.24 in6.1 mm
08:29 PM 40.1°F4.5°C 44.4°F6.9°C 91% Calm Calm -- 29.61 in1002.7 mb 0.00 in0.0 mm 0.00 in0.0 mm 0.24 in6.1 mm
08:32 PM 40.1°F4.5°C 44.2°F6.8°C 91% Calm Calm -- 29.61 in1002.7 mb 0.00 in0.0 mm 0.00 in0.0 mm 0.24 in6.1 mm
08:35 PM 40.1°F4.5°C 44.2°F6.8°C 91% Calm Calm -- 29.61 in1002.7 mb 0.00 in0.0 mm 0.00 in0.0 mm 0.24 in6.1 mm
08:38 PM 40.1°F4.5°C 44.1°F6.7°C 90% Calm Calm -- 29.62 in1003.0 mb 0.00 in0.0 mm 0.00 in0.0 mm 0.24 in6.1 mm
08:41 PM 40.1°F4.5°C 44.5°F6.9°C 91% Calm Calm -- 29.62 in1003.0 mb 0.00 in0.0 mm 0.00 in0.0 mm 0.24 in6.1 mm
08:44 PM 40.0°F4.4°C 44.4°F6.9°C 91% Calm Calm -- 29.62 in1003.0 mb 0.00 in0.0 mm 0.00 in0.0 mm 0.24 in6.1 mm
08:47 PM 40.0°F4.4°C 44.5°F6.9°C 91% Calm Calm -- 29.62 in1003.0 mb 0.00 in0.0 mm 0.00 in0.0 mm 0.24 in6.1 mm
08:50 PM 40.0°F4.4°C 44.4°F6.9°C 91% Calm Calm -- 29.62 in1003.0 mb 0.00 in0.0 mm 0.00 in0.0 mm 0.24 in6.1 mm
08:53 PM 40.0°F4.4°C 44.6°F7.0°C 91% Calm Calm -- 29.62 in1003.0 mb 0.00 in0.0 mm 0.00 in0.0 mm 0.24 in6.1 mm
08:56 PM 40.0°F4.4°C 44.3°F6.8°C 90% Calm Calm -- 29.62 in1003.0 mb 0.00 in0.0 mm 0.00 in0.0 mm 0.24 in6.1 mm
08:59 PM 40.0°F4.4°C 44.7°F7.1°C 91% 1.6 mph NW2.6 kmh NW 1.6 mph2.6 kmh 29.62 in1003.0 mb 0.00 in0.0 mm 0.00 in0.0 mm 0.24 in6.1 mm
09:02 PM 39.9°F4.4°C 44.4°F6.9°C 91% 0.8 mph NNW1.3 kmh NNW 0.8 mph1.3 kmh 29.62 in1003.0 mb 0.00 in0.0 mm 0.00 in0.0 mm 0.24 in6.1 mm
09:05 PM 39.9°F4.4°C 44.5°F6.9°C 91% Calm Calm -- 29.62 in1003.0 mb 0.00 in0.0 mm 0.00 in0.0 mm 0.24 in6.1 mm
09:08 PM 39.7°F4.3°C 44.4°F6.9°C 91% Calm Calm -- 29.62 in1003.0 mb 0.00 in0.0 mm 0.00 in0.0 mm 0.24 in6.1 mm
09:11 PM 39.2°F4.0°C 44.6°F7.0°C 91% Calm Calm -- 29.62 in1003.0 mb 0.00 in0.0 mm 0.00 in0.0 mm 0.24 in6.1 mm
09:14 PM 39.2°F4.0°C 44.0°F6.7°C 90% 1.6 mph NNW2.6 kmh NNW 1.6 mph2.6 kmh 29.62 in1003.0 mb 0.00 in0.0 mm 0.00 in0.0 mm 0.24 in6.1 mm
09:17 PM 39.1°F3.9°C 43.7°F6.5°C 90% Calm Calm -- 29.62 in1003.0 mb 0.00 in0.0 mm 0.00 in0.0 mm 0.24 in6.1 mm
09:20 PM 38.9°F3.8°C 43.9°F6.6°C 90% Calm Calm -- 29.62 in1003.0 mb 0.00 in0.0 mm 0.00 in0.0 mm 0.24 in6.1 mm
09:23 PM 38.4°F3.6°C 44.0°F6.7°C 90% Calm Calm -- 29.62 in1003.0 mb 0.00 in0.0 mm 0.00 in0.0 mm 0.24 in6.1 mm
09:26 PM 38.3°F3.5°C 43.8°F6.6°C 90% Calm Calm -- 29.62 in1003.0 mb 0.00 in0.0 mm 0.00 in0.0 mm 0.24 in6.1 mm
09:29 PM 37.6°F3.1°C 43.6°F6.4°C 90% Calm Calm -- 29.62 in1003.0 mb 0.00 in0.0 mm 0.00 in0.0 mm 0.24 in6.1 mm
09:32 PM 37.2°F2.9°C 43.1°F6.2°C 89% Calm Calm -- 29.63 in1003.4 mb 0.00 in0.0 mm 0.00 in0.0 mm 0.24 in6.1 mm
09:35 PM 36.7°F2.6°C 42.4°F5.8°C 87% Calm Calm -- 29.63 in1003.4 mb 0.00 in0.0 mm 0.00 in0.0 mm 0.24 in6.1 mm
09:38 PM 36.3°F2.4°C 41.8°F5.4°C 86% Calm Calm -- 29.63 in1003.4 mb 0.00 in0.0 mm 0.00 in0.0 mm 0.24 in6.1 mm
09:41 PM 36.4°F2.4°C 42.1°F5.6°C 88% Calm Calm -- 29.63 in1003.4 mb 0.00 in0.0 mm 0.00 in0.0 mm 0.24 in6.1 mm
09:44 PM 36.5°F2.5°C 42.1°F5.6°C 88% Calm Calm -- 29.63 in1003.4 mb 0.00 in0.0 mm 0.00 in0.0 mm 0.24 in6.1 mm
09:47 PM 36.6°F2.6°C 42.0°F5.6°C 88% Calm Calm -- 29.63 in1003.4 mb 0.00 in0.0 mm 0.00 in0.0 mm 0.24 in6.1 mm
09:50 PM 36.3°F2.4°C 42.2°F5.7°C 88% Calm Calm -- 29.64 in1003.7 mb 0.00 in0.0 mm 0.00 in0.0 mm 0.24 in6.1 mm
09:53 PM 36.4°F2.4°C 42.0°F5.6°C 88% Calm Calm -- 29.64 in1003.7 mb 0.00 in0.0 mm 0.00 in0.0 mm 0.24 in6.1 mm
09:56 PM 36.3°F2.4°C 41.9°F5.5°C 88% Calm Calm -- 29.64 in1003.7 mb 0.00 in0.0 mm 0.00 in0.0 mm 0.24 in6.1 mm
09:59 PM 36.3°F2.4°C 41.9°F5.5°C 88% Calm Calm -- 29.64 in1003.7 mb 0.00 in0.0 mm 0.00 in0.0 mm 0.24 in6.1 mm
10:02 PM 36.8°F2.7°C 41.9°F5.5°C 88% Calm Calm -- 29.64 in1003.7 mb 0.00 in0.0 mm 0.00 in0.0 mm 0.24 in6.1 mm
10:05 PM 36.7°F2.6°C 41.9°F5.5°C 89% Calm Calm -- 29.64 in1003.7 mb 0.00 in0.0 mm 0.00 in0.0 mm 0.24 in6.1 mm
10:08 PM 36.6°F2.6°C 42.1°F5.6°C 89% Calm Calm -- 29.64 in1003.7 mb 0.00 in0.0 mm 0.00 in0.0 mm 0.24 in6.1 mm
10:11 PM 36.6°F2.6°C 42.0°F5.6°C 89% Calm Calm -- 29.64 in1003.7 mb 0.00 in0.0 mm 0.00 in0.0 mm 0.24 in6.1 mm
10:14 PM 36.5°F2.5°C 41.9°F5.5°C 89% Calm Calm -- 29.64 in1003.7 mb 0.00 in0.0 mm 0.00 in0.0 mm 0.24 in6.1 mm
10:17 PM 36.4°F2.4°C 42.0°F5.6°C 89% Calm Calm -- 29.64 in1003.7 mb 0.00 in0.0 mm 0.00 in0.0 mm 0.24 in6.1 mm
10:20 PM 36.5°F2.5°C 42.0°F5.6°C 89% Calm Calm -- 29.64 in1003.7 mb 0.00 in0.0 mm 0.00 in0.0 mm 0.24 in6.1 mm
10:23 PM 36.6°F2.6°C 41.7°F5.4°C 89% Calm Calm -- 29.64 in1003.7 mb 0.00 in0.0 mm 0.00 in0.0 mm 0.24 in6.1 mm
10:26 PM 36.6°F2.6°C 41.9°F5.5°C 89% Calm Calm -- 29.64 in1003.7 mb 0.00 in0.0 mm 0.00 in0.0 mm 0.24 in6.1 mm
10:29 PM 36.7°F2.6°C 41.6°F5.3°C 89% Calm Calm -- 29.64 in1003.7 mb 0.00 in0.0 mm 0.00 in0.0 mm 0.24 in6.1 mm
10:32 PM 36.5°F2.5°C 41.9°F5.5°C 89% Calm Calm -- 29.64 in1003.7 mb 0.00 in0.0 mm 0.00 in0.0 mm 0.24 in6.1 mm
10:35 PM 37.0°F2.8°C 41.7°F5.4°C 89% Calm Calm -- 29.65 in1004.1 mb 0.00 in0.0 mm 0.00 in0.0 mm 0.24 in6.1 mm
10:38 PM 36.7°F2.6°C 41.9°F5.5°C 89% Calm Calm -- 29.64 in1003.7 mb 0.00 in0.0 mm 0.00 in0.0 mm 0.24 in6.1 mm
10:41 PM 36.1°F2.3°C 41.5°F5.3°C 89% Calm Calm -- 29.65 in1004.1 mb 0.00 in0.0 mm 0.00 in0.0 mm 0.24 in6.1 mm
10:44 PM 36.1°F2.3°C 41.5°F5.3°C 88% Calm Calm -- 29.65 in1004.1 mb 0.00 in0.0 mm 0.00 in0.0 mm 0.24 in6.1 mm
10:47 PM 35.9°F2.2°C 41.2°F5.1°C 88% Calm Calm -- 29.65 in1004.1 mb 0.00 in0.0 mm 0.00 in0.0 mm 0.24 in6.1 mm
10:50 PM 35.8°F2.1°C 41.5°F5.3°C 88% Calm Calm -- 29.66 in1004.4 mb 0.00 in0.0 mm 0.00 in0.0 mm 0.24 in6.1 mm
10:53 PM 35.9°F2.2°C 41.3°F5.2°C 88% Calm Calm -- 29.66 in1004.4 mb 0.00 in0.0 mm 0.00 in0.0 mm 0.24 in6.1 mm
10:56 PM 36.1°F2.3°C 41.3°F5.2°C 89% Calm Calm -- 29.66 in1004.4 mb 0.00 in0.0 mm 0.00 in0.0 mm 0.24 in6.1 mm
10:59 PM 36.3°F2.4°C 41.3°F5.2°C 89% Calm Calm -- 29.66 in1004.4 mb 0.00 in0.0 mm 0.00 in0.0 mm 0.24 in6.1 mm
11:02 PM 36.3°F2.4°C 41.5°F5.3°C 89% Calm Calm -- 29.66 in1004.4 mb 0.00 in0.0 mm 0.00 in0.0 mm 0.24 in6.1 mm
11:05 PM 36.4°F2.4°C 41.2°F5.1°C 89% Calm Calm -- 29.66 in1004.4 mb 0.00 in0.0 mm 0.00 in0.0 mm 0.24 in6.1 mm
11:08 PM 36.5°F2.5°C 41.4°F5.2°C 89% Calm Calm -- 29.66 in1004.4 mb 0.00 in0.0 mm 0.00 in0.0 mm 0.24 in6.1 mm
11:11 PM 36.5°F2.5°C 41.6°F5.3°C 89% Calm Calm -- 29.66 in1004.4 mb 0.00 in0.0 mm 0.00 in0.0 mm 0.24 in6.1 mm
11:14 PM 36.6°F2.6°C 41.4°F5.2°C 89% Calm Calm -- 29.66 in1004.4 mb 0.00 in0.0 mm 0.00 in0.0 mm 0.24 in6.1 mm
11:17 PM 36.4°F2.4°C 41.2°F5.1°C 88% Calm Calm -- 29.66 in1004.4 mb 0.00 in0.0 mm 0.00 in0.0 mm 0.24 in6.1 mm
11:20 PM 36.5°F2.5°C 41.6°F5.3°C 89% Calm Calm -- 29.66 in1004.4 mb 0.00 in0.0 mm 0.00 in0.0 mm 0.24 in6.1 mm
11:23 PM 36.6°F2.6°C 41.3°F5.2°C 89% Calm Calm -- 29.67 in1004.7 mb 0.00 in0.0 mm 0.00 in0.0 mm 0.24 in6.1 mm
11:26 PM 37.2°F2.9°C 41.4°F5.2°C 89% 1.2 mph 1.9 kmh 1.2 mph1.9 kmh 29.67 in1004.7 mb 0.00 in0.0 mm 0.00 in0.0 mm 0.24 in6.1 mm
11:29 PM 37.0°F2.8°C 41.6°F5.3°C 89% Calm Calm -- 29.67 in1004.7 mb 0.00 in0.0 mm 0.00 in0.0 mm 0.24 in6.1 mm
11:32 PM 37.3°F2.9°C 41.7°F5.4°C 90% Calm Calm -- 29.67 in1004.7 mb 0.00 in0.0 mm 0.00 in0.0 mm 0.24 in6.1 mm
11:35 PM 37.0°F2.8°C 41.6°F5.3°C 89% 0.8 mph NNW1.3 kmh NNW 0.8 mph1.3 kmh 29.67 in1004.7 mb 0.00 in0.0 mm 0.00 in0.0 mm 0.24 in6.1 mm
11:38 PM 37.1°F2.8°C 41.4°F5.2°C 89% Calm Calm -- 29.67 in1004.7 mb 0.00 in0.0 mm 0.00 in0.0 mm 0.24 in6.1 mm
11:41 PM 36.8°F2.7°C 41.7°F5.4°C 89% Calm Calm -- 29.67 in1004.7 mb 0.00 in0.0 mm 0.00 in0.0 mm 0.24 in6.1 mm
11:44 PM 36.5°F2.5°C 41.6°F5.3°C 90% Calm Calm -- 29.67 in1004.7 mb 0.00 in0.0 mm 0.00 in0.0 mm 0.24 in6.1 mm
11:47 PM 36.5°F2.5°C 41.4°F5.2°C 89% Calm Calm -- 29.67 in1004.7 mb 0.00 in0.0 mm 0.00 in0.0 mm 0.24 in6.1 mm
11:50 PM 35.8°F2.1°C 41.5°F5.3°C 89% Calm Calm -- 29.67 in1004.7 mb 0.00 in0.0 mm 0.00 in0.0 mm 0.24 in6.1 mm
11:53 PM 35.0°F1.7°C 41.1°F5.1°C 89% Calm Calm -- 29.67 in1004.7 mb 0.00 in0.0 mm 0.00 in0.0 mm 0.24 in6.1 mm
11:56 PM 34.4°F1.3°C 40.4°F4.7°C 87% 0.4 mph NNE0.6 kmh NNE 0.4 mph0.6 kmh 29.67 in1004.7 mb 0.00 in0.0 mm 0.00 in0.0 mm 0.24 in6.1 mm
11:59 PM 34.0°F1.1°C 40.2°F4.6°C 87% Calm Calm -- 29.67 in1004.7 mb 0.00 in0.0 mm 0.00 in0.0 mm 0.24 in6.1 mm